Observation data for Smyer on 06/30/2020      Previous  Date  Next       Current Mesonet Observations  Soil Data  Daily Summary Page  Observations in Plain Language
KSM2 300500Z 20010KT 27/05 A2981 RMK A01 T02730051  RH  024%=      5-min Rain = 0
KSM2 300501Z 20010KT 27/05 A2981 RMK A01 T02730052  RH  024%=      5-min Rain = 0
KSM2 300502Z 20010KT 27/05 A2981 RMK A01 T02720052  RH  025%=      5-min Rain = 0
KSM2 300503Z 20010KT 27/05 A2981 RMK A01 T02710052  RH  025%=      5-min Rain = 0
KSM2 300504Z 20010KT 27/05 A2981 RMK A01 T02710052  RH  025%=      5-min Rain = 0
KSM2 300505Z 20010KT 27/05 A2981 RMK A01 T02700051  RH  025%=      5-min Rain = 0
KSM2 300506Z 20010KT 27/05 A2981 RMK A01 T02710052  RH  025%=      5-min Rain = 0
KSM2 300507Z 20011KT 27/05 A2981 RMK A01 T02710052  RH  025%=      5-min Rain = 0
KSM2 300508Z 20010KT 27/05 A2981 RMK A01 T02710052  RH  025%=      5-min Rain = 0
KSM2 300509Z 20010KT 27/05 A2981 RMK A01 T02710053  RH  025%=      5-min Rain = 0
KSM2 300510Z 20010KT 27/05 A2982 RMK A01 T02700052  RH  025%=      5-min Rain = 0
KSM2 300511Z 20010KT 27/05 A2982 RMK A01 T02700052  RH  025%=      5-min Rain = 0
KSM2 300512Z 20010KT 27/05 A2982 RMK A01 T02710051  RH  025%=      5-min Rain = 0
KSM2 300513Z 20010KT 27/05 A2982 RMK A01 T02710052  RH  025%=      5-min Rain = 0
KSM2 300514Z 20010KT 27/05 A2982 RMK A01 T02710052  RH  025%=      5-min Rain = 0
KSM2 300515Z 20010KT 27/05 A2982 RMK A01 T02720051  RH  024%=      5-min Rain = 0
KSM2 300516Z 20010KT 27/05 A2982 RMK A01 T02720052  RH  024%=      5-min Rain = 0
KSM2 300517Z 20011KT 27/05 A2982 RMK A01 T02730051  RH  024%=      5-min Rain = 0
KSM2 300518Z 20010KT 27/05 A2982 RMK A01 T02730051  RH  024%=      5-min Rain = 0
KSM2 300519Z 21011KT 27/05 A2982 RMK A01 T02730051  RH  024%=      5-min Rain = 0
KSM2 300520Z 21011KT 27/05 A2982 RMK A01 T02730051  RH  024%=      5-min Rain = 0
KSM2 300521Z 21011KT 27/05 A2982 RMK A01 T02730051  RH  024%=      5-min Rain = 0
KSM2 300522Z 20012KT 27/05 A2982 RMK A01 T02730052  RH  024%=      5-min Rain = 0
KSM2 300523Z 21012KT 27/05 A2982 RMK A01 T02740052  RH  024%=      5-min Rain = 0
KSM2 300524Z 20012KT 27/05 A2982 RMK A01 T02740051  RH  024%=      5-min Rain = 0
KSM2 300525Z 20012KT 27/05 A2982 RMK A01 T02740051  RH  024%=      5-min Rain = 0
KSM2 300526Z 20011KT 28/05 A2982 RMK A01 T02750051  RH  024%=      5-min Rain = 0
KSM2 300527Z 21012KT 28/05 A2982 RMK A01 T02750051  RH  024%=      5-min Rain = 0
KSM2 300528Z 21012KT 28/05 A2982 RMK A01 T02750052  RH  024%=      5-min Rain = 0
KSM2 300529Z 20012KT 28/05 A2982 RMK A01 T02750052  RH  024%=      5-min Rain = 0
KSM2 300530Z 21012KT 28/05 A2982 RMK A01 T02750052  RH  024%=      5-min Rain = 0
KSM2 300531Z 20011KT 28/05 A2982 RMK A01 T02750052  RH  024%=      5-min Rain = 0
KSM2 300532Z 20012G17KT 27/05 A2982 RMK A01 T02740053  RH  024%=      5-min Rain = 0
KSM2 300533Z 21013KT 27/05 A2982 RMK A01 T02740052  RH  024%=      5-min Rain = 0
KSM2 300534Z 21012KT 28/05 A2982 RMK A01 T02750052  RH  024%=      5-min Rain = 0
KSM2 300535Z 21012KT 28/05 A2982 RMK A01 T02760052  RH  024%=      5-min Rain = 0
KSM2 300536Z 21012KT 28/05 A2982 RMK A01 T02760052  RH  024%=      5-min Rain = 0
KSM2 300537Z 21013KT 28/05 A2982 RMK A01 T02760052  RH  024%=      5-min Rain = 0
KSM2 300538Z 21013KT 28/05 A2982 RMK A01 T02760053  RH  024%=      5-min Rain = 0
KSM2 300539Z 21012KT 28/05 A2982 RMK A01 T02760052  RH  024%=      5-min Rain = 0
KSM2 300540Z 20010KT 28/05 A2982 RMK A01 T02760052  RH  024%=      5-min Rain = 0
KSM2 300541Z 20010KT 28/05 A2982 RMK A01 T02750053  RH  024%=      5-min Rain = 0
KSM2 300542Z 19012KT 27/05 A2983 RMK A01 T02740054  RH  025%=      5-min Rain = 0
KSM2 300543Z 17011KT 27/05 A2983 RMK A01 T02720054  RH  025%=      5-min Rain = 0
KSM2 300544Z 17011KT 27/05 A2983 RMK A01 T02710054  RH  025%=      5-min Rain = 0
KSM2 300545Z 18012KT 27/05 A2983 RMK A01 T02700053  RH  025%=      5-min Rain = 0
KSM2 300546Z 18011KT 27/05 A2983 RMK A01 T02700053  RH  025%=      5-min Rain = 0
KSM2 300547Z 17011KT 27/05 A2983 RMK A01 T02700053  RH  025%=      5-min Rain = 0
KSM2 300548Z 16013KT 27/05 A2983 RMK A01 T02700053  RH  025%=      5-min Rain = 0
KSM2 300549Z 17015KT 27/05 A2983 RMK A01 T02710052  RH  025%=      5-min Rain = 0
KSM2 300550Z 17013KT 27/05 A2983 RMK A01 T02730052  RH  024%=      5-min Rain = 0
KSM2 300551Z 16013G18KT 27/05 A2984 RMK A01 T02730054  RH  025%=      5-min Rain = 0
KSM2 300552Z 17014KT 27/06 A2984 RMK A01 T02730057  RH  025%=      5-min Rain = 0
KSM2 300553Z 18012G17KT 27/06 A2984 RMK A01 T02720061  RH  026%=      5-min Rain = 0
KSM2 300554Z 17012KT 27/07 A2984 RMK A01 T02710067  RH  027%=      5-min Rain = 0
KSM2 300555Z 17013G20KT 27/07 A2984 RMK A01 T02690074  RH  029%=      5-min Rain = 0
KSM2 300556Z 18012G17KT 27/08 A2984 RMK A01 T02690082  RH  031%=      5-min Rain = 0
KSM2 300557Z 18014KT 27/09 A2984 RMK A01 T02690088  RH  032%=      5-min Rain = 0
KSM2 300558Z 18013KT 27/10 A2984 RMK A01 T02680098  RH  034%=      5-min Rain = 0
KSM2 300559Z 18014G20KT 27/11 A2984 RMK A01 T02680105  RH  036%=      5-min Rain = 0
KSM2 300600Z 18014KT 27/11 A2984 RMK A01 T02680111  RH  037%=      5-min Rain = 0
KSM2 300601Z 18017KT 27/12 A2984 RMK A01 T02670116  RH  039%=      5-min Rain = 0
KSM2 300602Z 18015G20KT 27/12 A2984 RMK A01 T02670120  RH  040%=      5-min Rain = 0
KSM2 300603Z 18014KT 27/12 A2984 RMK A01 T02670121  RH  040%=      5-min Rain = 0
KSM2 300604Z 17015KT 27/12 A2984 RMK A01 T02670123  RH  041%=      5-min Rain = 0
KSM2 300605Z 18013KT 27/13 A2984 RMK A01 T02660125  RH  042%=      5-min Rain = 0
KSM2 300606Z 18014G19KT 27/13 A2984 RMK A01 T02660127  RH  042%=      5-min Rain = 0
KSM2 300607Z 18014KT 27/13 A2984 RMK A01 T02660130  RH  043%=      5-min Rain = 0
KSM2 300608Z 18013KT 27/13 A2984 RMK A01 T02650131  RH  044%=      5-min Rain = 0
KSM2 300609Z 18014KT 27/13 A2984 RMK A01 T02650133  RH  044%=      5-min Rain = 0
KSM2 300610Z 18015KT 27/14 A2984 RMK A01 T02650136  RH  045%=      5-min Rain = 0
KSM2 300611Z 18013KT 26/14 A2984 RMK A01 T02640137  RH  045%=      5-min Rain = 0
KSM2 300612Z 18013KT 26/14 A2984 RMK A01 T02640139  RH  046%=      5-min Rain = 0
KSM2 300613Z 18013KT 26/14 A2984 RMK A01 T02630142  RH  047%=      5-min Rain = 0
KSM2 300614Z 18014KT 26/14 A2984 RMK A01 T02630144  RH  048%=      5-min Rain = 0
KSM2 300615Z 18014KT 26/15 A2984 RMK A01 T02630147  RH  049%=      5-min Rain = 0
KSM2 300616Z 19013KT 26/15 A2984 RMK A01 T02630149  RH  050%=      5-min Rain = 0
KSM2 300617Z 18013KT 26/15 A2984 RMK A01 T02630151  RH  050%=      5-min Rain = 0
KSM2 300618Z 19012G18KT 26/15 A2984 RMK A01 T02630153  RH  051%=      5-min Rain = 0
KSM2 300619Z 18014G19KT 26/16 A2984 RMK A01 T02620156  RH  052%=      5-min Rain = 0
KSM2 300620Z 18014KT 26/16 A2984 RMK A01 T02620159  RH  053%=      5-min Rain = 0
KSM2 300621Z 19016G21KT 26/16 A2984 RMK A01 T02630160  RH  053%=      5-min Rain = 0
KSM2 300622Z 19014KT 26/16 A2985 RMK A01 T02630163  RH  054%=      5-min Rain = 0
KSM2 300623Z 18014KT 26/16 A2985 RMK A01 T02640164  RH  054%=      5-min Rain = 0
KSM2 300624Z 18015KT 26/17 A2985 RMK A01 T02640166  RH  055%=      5-min Rain = 0
KSM2 300625Z 18013G19KT 26/17 A2985 RMK A01 T02640167  RH  055%=      5-min Rain = 0
KSM2 300626Z 18013G18KT 26/17 A2985 RMK A01 T02640168  RH  056%=      5-min Rain = 0
KSM2 300627Z 19014KT 26/17 A2985 RMK A01 T02640169  RH  056%=      5-min Rain = 0
KSM2 300628Z 19014G19KT 26/17 A2985 RMK A01 T02640169  RH  056%=      5-min Rain = 0
KSM2 300629Z 18016KT 26/17 A2985 RMK A01 T02640170  RH  056%=      5-min Rain = 0
KSM2 300630Z 18015KT 26/17 A2985 RMK A01 T02640171  RH  057%=      5-min Rain = 0
KSM2 300631Z 18012KT 26/17 A2985 RMK A01 T02640171  RH  057%=      5-min Rain = 0
KSM2 300632Z 18014G19KT 26/17 A2985 RMK A01 T02640172  RH  057%=      5-min Rain = 0
KSM2 300633Z 18015KT 26/17 A2985 RMK A01 T02630172  RH  057%=      5-min Rain = 0
KSM2 300634Z 19013KT 26/17 A2985 RMK A01 T02630173  RH  057%=      5-min Rain = 0
KSM2 300635Z 18012KT 26/17 A2985 RMK A01 T02630173  RH  058%=      5-min Rain = 0
KSM2 300636Z 18015KT 26/17 A2985 RMK A01 T02620173  RH  058%=      5-min Rain = 0
KSM2 300637Z 19014KT 26/17 A2985 RMK A01 T02620173  RH  058%=      5-min Rain = 0
KSM2 300638Z 19016KT 26/17 A2985 RMK A01 T02620174  RH  058%=      5-min Rain = 0
KSM2 300639Z 19016G21KT 26/17 A2985 RMK A01 T02620174  RH  058%=      5-min Rain = 0
KSM2 300640Z 19013G18KT 26/17 A2985 RMK A01 T02620174  RH  058%=      5-min Rain = 0
KSM2 300641Z 19018KT 26/18 A2985 RMK A01 T02620175  RH  059%=      5-min Rain = 0
KSM2 300642Z 19016KT 26/18 A2985 RMK A01 T02620175  RH  059%=      5-min Rain = 0
KSM2 300643Z 19015KT 26/18 A2984 RMK A01 T02620176  RH  059%=      5-min Rain = 0
KSM2 300644Z 19018KT 26/18 A2984 RMK A01 T02620176  RH  059%=      5-min Rain = 0
KSM2 300645Z 19016KT 26/18 A2984 RMK A01 T02620176  RH  059%=      5-min Rain = 0
KSM2 300646Z 19017G22KT 26/18 A2984 RMK A01 T02620176  RH  059%=      5-min Rain = 0
KSM2 300647Z 19018KT 26/18 A2984 RMK A01 T02620176  RH  059%=      5-min Rain = 0
KSM2 300648Z 19016KT 26/18 A2984 RMK A01 T02620176  RH  059%=      5-min Rain = 0
KSM2 300649Z 20017G22KT 26/18 A2984 RMK A01 T02610177  RH  060%=      5-min Rain = 0
KSM2 300650Z 20018KT 26/18 A2984 RMK A01 T02610177  RH  060%=      5-min Rain = 0
KSM2 300651Z 19018KT 26/18 A2984 RMK A01 T02610177  RH  060%=      5-min Rain = 0
KSM2 300652Z 19018KT 26/18 A2984 RMK A01 T02610177  RH  060%=      5-min Rain = 0
KSM2 300653Z 19018KT 26/18 A2984 RMK A01 T02610177  RH  060%=      5-min Rain = 0
KSM2 300654Z 19020KT 26/18 A2984 RMK A01 T02610177  RH  060%=      5-min Rain = 0
KSM2 300655Z 20018KT 26/18 A2984 RMK A01 T02620177  RH  060%=      5-min Rain = 0
KSM2 300656Z 20017G22KT 26/18 A2984 RMK A01 T02620177  RH  060%=      5-min Rain = 0
KSM2 300657Z 20016KT 26/18 A2984 RMK A01 T02610177  RH  060%=      5-min Rain = 0
KSM2 300658Z 20017G22KT 26/18 A2983 RMK A01 T02610177  RH  060%=      5-min Rain = 0
KSM2 300659Z 20018KT 26/18 A2983 RMK A01 T02600177  RH  060%=      5-min Rain = 0
KSM2 300700Z 20018KT 26/18 A2983 RMK A01 T02600178  RH  060%=      5-min Rain = 0
KSM2 300701Z 20017KT 26/18 A2983 RMK A01 T02610178  RH  060%=      5-min Rain = 0
KSM2 300702Z 20016KT 26/18 A2983 RMK A01 T02610178  RH  060%=      5-min Rain = 0
KSM2 300703Z 20016KT 26/18 A2983 RMK A01 T02600178  RH  060%=      5-min Rain = 0
KSM2 300704Z 20017KT 26/18 A2983 RMK A01 T02610178  RH  060%=      5-min Rain = 0
KSM2 300705Z 20017KT 26/18 A2983 RMK A01 T02600178  RH  061%=      5-min Rain = 0
KSM2 300706Z 21015KT 26/18 A2983 RMK A01 T02610178  RH  060%=      5-min Rain = 0
KSM2 300707Z 20016KT 26/18 A2983 RMK A01 T02610179  RH  061%=      5-min Rain = 0
KSM2 300708Z 20015G21KT 26/18 A2983 RMK A01 T02600178  RH  061%=      5-min Rain = 0
KSM2 300709Z 20016G23KT 26/18 A2983 RMK A01 T02600179  RH  061%=      5-min Rain = 0
KSM2 300710Z 20016KT 26/18 A2983 RMK A01 T02600179  RH  061%=      5-min Rain = 0
KSM2 300711Z 20017KT 26/18 A2983 RMK A01 T02590179  RH  061%=      5-min Rain = 0
KSM2 300712Z 20016G21KT 26/18 A2983 RMK A01 T02590179  RH  061%=      5-min Rain = 0
KSM2 300713Z 20019G26KT 26/18 A2983 RMK A01 T02590179  RH  061%=      5-min Rain = 0
KSM2 300714Z 20019KT 26/18 A2983 RMK A01 T02590179  RH  061%=      5-min Rain = 0
KSM2 300715Z 19018G25KT 26/18 A2983 RMK A01 T02600179  RH  061%=      5-min Rain = 0
KSM2 300716Z 20018G23KT 26/18 A2983 RMK A01 T02600179  RH  061%=      5-min Rain = 0
KSM2 300717Z 20017KT 26/18 A2983 RMK A01 T02590179  RH  061%=      5-min Rain = 0
KSM2 300718Z 19017KT 26/18 A2983 RMK A01 T02600179  RH  061%=      5-min Rain = 0
KSM2 300719Z 19018KT 26/18 A2983 RMK A01 T02600179  RH  061%=      5-min Rain = 0
KSM2 300720Z 19015KT 26/18 A2983 RMK A01 T02590179  RH  061%=      5-min Rain = 0
KSM2 300721Z 19019KT 26/18 A2983 RMK A01 T02590179  RH  061%=      5-min Rain = 0
KSM2 300722Z 19018KT 26/18 A2983 RMK A01 T02590179  RH  061%=      5-min Rain = 0
KSM2 300723Z 19016KT 26/18 A2983 RMK A01 T02590179  RH  061%=      5-min Rain = 0
KSM2 300724Z 19017G22KT 26/18 A2983 RMK A01 T02580179  RH  061%=      5-min Rain = 0
KSM2 300725Z 19015KT 26/18 A2984 RMK A01 T02580179  RH  062%=      5-min Rain = 0
KSM2 300726Z 20017KT 26/18 A2984 RMK A01 T02580179  RH  062%=      5-min Rain = 0
KSM2 300727Z 19016KT 26/18 A2983 RMK A01 T02580179  RH  062%=      5-min Rain = 0
KSM2 300728Z 19017G22KT 26/18 A2984 RMK A01 T02570179  RH  062%=      5-min Rain = 0
KSM2 300729Z 19016KT 26/18 A2983 RMK A01 T02570179  RH  062%=      5-min Rain = 0
KSM2 300730Z 19016KT 26/18 A2983 RMK A01 T02570178  RH  062%=      5-min Rain = 0
KSM2 300731Z 19015KT 26/18 A2984 RMK A01 T02570179  RH  062%=      5-min Rain = 0
KSM2 300732Z 19017KT 26/18 A2984 RMK A01 T02570178  RH  062%=      5-min Rain = 0
KSM2 300733Z 19016KT 26/18 A2984 RMK A01 T02560178  RH  062%=      5-min Rain = 0
KSM2 300734Z 20015KT 26/18 A2984 RMK A01 T02560178  RH  062%=      5-min Rain = 0
KSM2 300735Z 19016KT 26/18 A2984 RMK A01 T02560178  RH  062%=      5-min Rain = 0
KSM2 300736Z 20016KT 26/18 A2984 RMK A01 T02560178  RH  062%=      5-min Rain = 0
KSM2 300737Z 20015KT 26/18 A2984 RMK A01 T02560178  RH  062%=      5-min Rain = 0
KSM2 300738Z 20015KT 26/18 A2983 RMK A01 T02560178  RH  062%=      5-min Rain = 0
KSM2 300739Z 19017KT 26/18 A2983 RMK A01 T02550178  RH  062%=      5-min Rain = 0
KSM2 300740Z 20016KT 26/18 A2983 RMK A01 T02550178  RH  062%=      5-min Rain = 0
KSM2 300741Z 20016KT 26/18 A2983 RMK A01 T02560178  RH  062%=      5-min Rain = 0
KSM2 300742Z 19014KT 26/18 A2983 RMK A01 T02550178  RH  062%=      5-min Rain = 0
KSM2 300743Z 20014G19KT 26/18 A2983 RMK A01 T02550178  RH  062%=      5-min Rain = 0
KSM2 300744Z 20014KT 26/18 A2983 RMK A01 T02550178  RH  062%=      5-min Rain = 0
KSM2 300745Z 20014KT 25/18 A2983 RMK A01 T02540177  RH  062%=      5-min Rain = 0
KSM2 300746Z 20013KT 25/18 A2983 RMK A01 T02540177  RH  062%=      5-min Rain = 0
KSM2 300747Z 20014KT 25/18 A2983 RMK A01 T02540177  RH  063%=      5-min Rain = 0
KSM2 300748Z 20014KT 25/18 A2983 RMK A01 T02540177  RH  063%=      5-min Rain = 0
KSM2 300749Z 20016KT 25/18 A2983 RMK A01 T02540177  RH  063%=      5-min Rain = 0
KSM2 300750Z 20017KT 25/18 A2983 RMK A01 T02540177  RH  063%=      5-min Rain = 0
KSM2 300751Z 20016KT 25/18 A2983 RMK A01 T02530177  RH  063%=      5-min Rain = 0
KSM2 300752Z 19015KT 25/18 A2983 RMK A01 T02540177  RH  063%=      5-min Rain = 0
KSM2 300753Z 20015KT 25/18 A2983 RMK A01 T02530177  RH  063%=      5-min Rain = 0
KSM2 300754Z 20014KT 25/18 A2983 RMK A01 T02530177  RH  063%=      5-min Rain = 0
KSM2 300755Z 20014G19KT 25/18 A2983 RMK A01 T02530177  RH  063%=      5-min Rain = 0
KSM2 300756Z 20014KT 25/18 A2983 RMK A01 T02530177  RH  063%=      5-min Rain = 0
KSM2 300757Z 20012KT 25/18 A2983 RMK A01 T02530177  RH  063%=      5-min Rain = 0
KSM2 300758Z 20017KT 25/18 A2983 RMK A01 T02520177  RH  063%=      5-min Rain = 0
KSM2 300759Z 19016KT 25/18 A2983 RMK A01 T02520177  RH  063%=      5-min Rain = 0
KSM2 300800Z 19014KT 25/18 A2983 RMK A01 T02520177  RH  063%=      5-min Rain = 0
KSM2 300801Z 19014G19KT 25/18 A2983 RMK A01 T02520176  RH  063%=      5-min Rain = 0
KSM2 300802Z 19015KT 25/18 A2983 RMK A01 T02510176  RH  063%=      5-min Rain = 0
KSM2 300803Z 19014KT 25/18 A2983 RMK A01 T02510176  RH  063%=      5-min Rain = 0
KSM2 300804Z 19014KT 25/18 A2983 RMK A01 T02510176  RH  063%=      5-min Rain = 0
KSM2 300805Z 19014KT 25/18 A2983 RMK A01 T02500176  RH  063%=      5-min Rain = 0
KSM2 300806Z 18012KT 25/18 A2983 RMK A01 T02500176  RH  063%=      5-min Rain = 0
KSM2 300807Z 19013KT 25/18 A2983 RMK A01 T02500176  RH  063%=      5-min Rain = 0
KSM2 300808Z 19011KT 25/18 A2983 RMK A01 T02500176  RH  064%=      5-min Rain = 0
KSM2 300809Z 19013G18KT 25/18 A2983 RMK A01 T02500176  RH  064%=      5-min Rain = 0
KSM2 300810Z 19012KT 25/18 A2983 RMK A01 T02490176  RH  064%=      5-min Rain = 0
KSM2 300811Z 19012KT 25/18 A2983 RMK A01 T02490176  RH  064%=      5-min Rain = 0
KSM2 300812Z 19014KT 25/18 A2983 RMK A01 T02490176  RH  064%=      5-min Rain = 0
KSM2 300813Z 18011KT 25/18 A2983 RMK A01 T02490176  RH  064%=      5-min Rain = 0
KSM2 300814Z 19012KT 25/18 A2983 RMK A01 T02480176  RH  064%=      5-min Rain = 0
KSM2 300815Z 19011KT 25/18 A2983 RMK A01 T02480176  RH  064%=      5-min Rain = 0
KSM2 300816Z 19013KT 25/18 A2983 RMK A01 T02470176  RH  064%=      5-min Rain = 0
KSM2 300817Z 19013KT 25/18 A2983 RMK A01 T02470176  RH  065%=      5-min Rain = 0
KSM2 300818Z 19012KT 25/18 A2983 RMK A01 T02470176  RH  065%=      5-min Rain = 0
KSM2 300819Z 19012KT 25/18 A2983 RMK A01 T02470176  RH  065%=      5-min Rain = 0
KSM2 300820Z 19012G17KT 25/18 A2983 RMK A01 T02460176  RH  065%=      5-min Rain = 0
KSM2 300821Z 18011KT 25/18 A2983 RMK A01 T02460176  RH  065%=      5-min Rain = 0
KSM2 300822Z 19011KT 25/18 A2983 RMK A01 T02460176  RH  065%=      5-min Rain = 0
KSM2 300823Z 18012G17KT 25/18 A2983 RMK A01 T02450176  RH  065%=      5-min Rain = 0
KSM2 300824Z 19013KT 25/18 A2983 RMK A01 T02450177  RH  065%=      5-min Rain = 0
KSM2 300825Z 19012KT 25/18 A2983 RMK A01 T02450177  RH  065%=      5-min Rain = 0
KSM2 300826Z 18011KT 25/18 A2983 RMK A01 T02450177  RH  066%=      5-min Rain = 0
KSM2 300827Z 19014KT 25/18 A2983 RMK A01 T02450177  RH  066%=      5-min Rain = 0
KSM2 300828Z 19015KT 25/18 A2983 RMK A01 T02450177  RH  066%=      5-min Rain = 0
KSM2 300829Z 19013KT 25/18 A2983 RMK A01 T02450176  RH  065%=      5-min Rain = 0
KSM2 300830Z 20014KT 25/18 A2983 RMK A01 T02450176  RH  065%=      5-min Rain = 0
KSM2 300831Z 19015KT 25/18 A2982 RMK A01 T02450176  RH  066%=      5-min Rain = 0
KSM2 300832Z 20015KT 25/18 A2982 RMK A01 T02450176  RH  065%=      5-min Rain = 0
KSM2 300833Z 20015KT 25/18 A2982 RMK A01 T02450176  RH  065%=      5-min Rain = 0
KSM2 300834Z 20014KT 25/18 A2982 RMK A01 T02460176  RH  065%=      5-min Rain = 0
KSM2 300835Z 19013KT 25/18 A2982 RMK A01 T02460176  RH  065%=      5-min Rain = 0
KSM2 300836Z 20013KT 25/18 A2982 RMK A01 T02450176  RH  065%=      5-min Rain = 0
KSM2 300837Z 20013KT 25/18 A2982 RMK A01 T02450176  RH  065%=      5-min Rain = 0
KSM2 300838Z 20013KT 25/18 A2982 RMK A01 T02450176  RH  065%=      5-min Rain = 0
KSM2 300839Z 20012KT 25/18 A2982 RMK A01 T02450176  RH  065%=      5-min Rain = 0
KSM2 300840Z 20014G19KT 25/18 A2982 RMK A01 T02450176  RH  065%=      5-min Rain = 0
KSM2 300841Z 20013KT 25/18 A2982 RMK A01 T02450176  RH  065%=      5-min Rain = 0
KSM2 300842Z 20013KT 25/18 A2983 RMK A01 T02450176  RH  065%=      5-min Rain = 0
KSM2 300843Z 19013KT 25/18 A2983 RMK A01 T02450176  RH  065%=      5-min Rain = 0
KSM2 300844Z 20014KT 24/18 A2983 RMK A01 T02440176  RH  066%=      5-min Rain = 0
KSM2 300845Z 20013KT 24/18 A2983 RMK A01 T02440175  RH  066%=      5-min Rain = 0
KSM2 300846Z 19011KT 24/18 A2983 RMK A01 T02440176  RH  066%=      5-min Rain = 0
KSM2 300847Z 19010KT 24/18 A2983 RMK A01 T02430175  RH  066%=      5-min Rain = 0
KSM2 300848Z 19011G16KT 24/18 A2983 RMK A01 T02420175  RH  066%=      5-min Rain = 0
KSM2 300849Z 19011KT 24/18 A2983 RMK A01 T02420175  RH  066%=      5-min Rain = 0
KSM2 300850Z 18010KT 24/18 A2983 RMK A01 T02410175  RH  066%=      5-min Rain = 0
KSM2 300851Z 18010KT 24/18 A2983 RMK A01 T02410175  RH  067%=      5-min Rain = 0
KSM2 300852Z 18010KT 24/18 A2983 RMK A01 T02410175  RH  067%=      5-min Rain = 0
KSM2 300853Z 18011KT 24/18 A2983 RMK A01 T02400175  RH  067%=      5-min Rain = 0
KSM2 300854Z 19009KT 24/18 A2983 RMK A01 T02400175  RH  067%=      5-min Rain = 0
KSM2 300855Z 19010KT 24/18 A2983 RMK A01 T02400175  RH  067%=      5-min Rain = 0
KSM2 300856Z 19010KT 24/18 A2983 RMK A01 T02390175  RH  067%=      5-min Rain = 0
KSM2 300857Z 19009KT 24/18 A2983 RMK A01 T02390175  RH  067%=      5-min Rain = 0
KSM2 300858Z 19010KT 24/18 A2983 RMK A01 T02390175  RH  067%=      5-min Rain = 0
KSM2 300859Z 19011KT 24/18 A2983 RMK A01 T02380175  RH  067%=      5-min Rain = 0
KSM2 300900Z 19012KT 24/18 A2983 RMK A01 T02390175  RH  067%=      5-min Rain = 0
KSM2 300901Z 18011KT 24/17 A2983 RMK A01 T02380174  RH  067%=      5-min Rain = 0
KSM2 300902Z 19010KT 24/17 A2983 RMK A01 T02380174  RH  067%=      5-min Rain = 0
KSM2 300903Z 19010KT 24/17 A2983 RMK A01 T02380174  RH  067%=      5-min Rain = 0
KSM2 300904Z 19010KT 24/18 A2983 RMK A01 T02380175  RH  068%=      5-min Rain = 0
KSM2 300905Z 18009KT 24/17 A2983 RMK A01 T02380174  RH  068%=      5-min Rain = 0
KSM2 300906Z 19009KT 24/17 A2983 RMK A01 T02370174  RH  068%=      5-min Rain = 0
KSM2 300907Z 18009KT 24/17 A2983 RMK A01 T02370174  RH  068%=      5-min Rain = 0
KSM2 300908Z 18009KT 24/17 A2983 RMK A01 T02370174  RH  068%=      5-min Rain = 0
KSM2 300909Z 18009KT 24/17 A2983 RMK A01 T02360174  RH  068%=      5-min Rain = 0
KSM2 300910Z 18010KT 24/18 A2983 RMK A01 T02360175  RH  068%=      5-min Rain = 0
KSM2 300911Z 17009KT 24/17 A2983 RMK A01 T02360174  RH  068%=      5-min Rain = 0
KSM2 300912Z 18010KT 24/17 A2983 RMK A01 T02360174  RH  068%=      5-min Rain = 0
KSM2 300913Z 17008KT 24/17 A2983 RMK A01 T02360174  RH  068%=      5-min Rain = 0
KSM2 300914Z 17008KT 24/17 A2983 RMK A01 T02370174  RH  068%=      5-min Rain = 0
KSM2 300915Z 17008KT 24/17 A2983 RMK A01 T02360174  RH  068%=      5-min Rain = 0
KSM2 300916Z 17009KT 24/17 A2983 RMK A01 T02360174  RH  068%=      5-min Rain = 0
KSM2 300917Z 17009KT 24/17 A2983 RMK A01 T02360174  RH  068%=      5-min Rain = 0
KSM2 300918Z 18009KT 24/17 A2983 RMK A01 T02360174  RH  068%=      5-min Rain = 0
KSM2 300919Z 18008KT 24/17 A2983 RMK A01 T02360174  RH  068%=      5-min Rain = 0
KSM2 300920Z 18008KT 24/17 A2983 RMK A01 T02360174  RH  068%=      5-min Rain = 0
KSM2 300921Z 18008KT 24/17 A2983 RMK A01 T02350174  RH  069%=      5-min Rain = 0
KSM2 300922Z 18008KT 23/17 A2983 RMK A01 T02340174  RH  069%=      5-min Rain = 0
KSM2 300923Z 18008KT 23/17 A2983 RMK A01 T02330174  RH  069%=      5-min Rain = 0
KSM2 300924Z 19008KT 23/17 A2983 RMK A01 T02330173  RH  069%=      5-min Rain = 0
KSM2 300925Z 19008KT 23/17 A2983 RMK A01 T02320173  RH  070%=      5-min Rain = 0
KSM2 300926Z 18008KT 23/17 A2983 RMK A01 T02310173  RH  070%=      5-min Rain = 0
KSM2 300927Z 19008KT 23/17 A2983 RMK A01 T02310173  RH  070%=      5-min Rain = 0
KSM2 300928Z 18008KT 23/17 A2983 RMK A01 T02310174  RH  070%=      5-min Rain = 0
KSM2 300929Z 19007KT 23/17 A2983 RMK A01 T02310174  RH  070%=      5-min Rain = 0
KSM2 300930Z 19008KT 23/17 A2983 RMK A01 T02300173  RH  070%=      5-min Rain = 0
KSM2 300931Z 18008KT 23/17 A2983 RMK A01 T02300173  RH  070%=      5-min Rain = 0
KSM2 300932Z 18008KT 23/17 A2983 RMK A01 T02300173  RH  070%=      5-min Rain = 0
KSM2 300933Z 18008KT 23/17 A2983 RMK A01 T02300173  RH  070%=      5-min Rain = 0
KSM2 300934Z 18008KT 23/17 A2983 RMK A01 T02300174  RH  070%=      5-min Rain = 0
KSM2 300935Z 17009KT 23/17 A2983 RMK A01 T02310174  RH  070%=      5-min Rain = 0
KSM2 300936Z 17009KT 23/17 A2983 RMK A01 T02320174  RH  070%=      5-min Rain = 0
KSM2 300937Z 17008KT 23/17 A2983 RMK A01 T02320173  RH  070%=      5-min Rain = 0
KSM2 300938Z 16009KT 23/17 A2983 RMK A01 T02310173  RH  070%=      5-min Rain = 0
KSM2 300939Z 17008KT 23/17 A2983 RMK A01 T02320174  RH  070%=      5-min Rain = 0
KSM2 300940Z 16007KT 23/17 A2983 RMK A01 T02320174  RH  070%=      5-min Rain = 0
KSM2 300941Z 16009KT 23/17 A2983 RMK A01 T02310174  RH  070%=      5-min Rain = 0
KSM2 300942Z 16007KT 23/17 A2983 RMK A01 T02310173  RH  070%=      5-min Rain = 0
KSM2 300943Z 17007KT 23/17 A2983 RMK A01 T02310173  RH  070%=      5-min Rain = 0
KSM2 300944Z 17006KT 23/17 A2983 RMK A01 T02300173  RH  070%=      5-min Rain = 0
KSM2 300945Z 17008KT 23/17 A2983 RMK A01 T02300173  RH  070%=      5-min Rain = 0
KSM2 300946Z 17007KT 23/17 A2983 RMK A01 T02300173  RH  070%=      5-min Rain = 0
KSM2 300947Z 18008KT 23/17 A2983 RMK A01 T02300173  RH  070%=      5-min Rain = 0
KSM2 300948Z 18008KT 23/17 A2983 RMK A01 T02300173  RH  070%=      5-min Rain = 0
KSM2 300949Z 17008KT 23/17 A2983 RMK A01 T02300173  RH  070%=      5-min Rain = 0
KSM2 300950Z 18007KT 23/17 A2983 RMK A01 T02300172  RH  070%=      5-min Rain = 0
KSM2 300951Z 18008KT 23/17 A2983 RMK A01 T02290172  RH  070%=      5-min Rain = 0
KSM2 300952Z 18008KT 23/17 A2983 RMK A01 T02290172  RH  070%=      5-min Rain = 0
KSM2 300953Z 18008KT 23/17 A2983 RMK A01 T02280172  RH  071%=      5-min Rain = 0
KSM2 300954Z 18007KT 23/17 A2983 RMK A01 T02280172  RH  071%=      5-min Rain = 0
KSM2 300955Z 18007KT 23/17 A2983 RMK A01 T02270172  RH  071%=      5-min Rain = 0
KSM2 300956Z 18008KT 23/17 A2983 RMK A01 T02270172  RH  071%=      5-min Rain = 0
KSM2 300957Z 18008KT 23/17 A2983 RMK A01 T02260172  RH  071%=      5-min Rain = 0
KSM2 300958Z 18008KT 23/17 A2983 RMK A01 T02260172  RH  071%=      5-min Rain = 0
KSM2 300959Z 18007KT 23/17 A2983 RMK A01 T02260172  RH  071%=      5-min Rain = 0
KSM2 301000Z 18008KT 23/17 A2983 RMK A01 T02260172  RH  072%=      5-min Rain = 0
KSM2 301001Z 18007KT 23/17 A2983 RMK A01 T02250171  RH  072%=      5-min Rain = 0
KSM2 301002Z 18007KT 23/17 A2984 RMK A01 T02250172  RH  072%=      5-min Rain = 0
KSM2 301003Z 18008KT 23/17 A2984 RMK A01 T02250172  RH  072%=      5-min Rain = 0
KSM2 301004Z 18008KT 23/17 A2984 RMK A01 T02250171  RH  072%=      5-min Rain = 0
KSM2 301005Z 18008KT 23/17 A2984 RMK A01 T02250171  RH  072%=      5-min Rain = 0
KSM2 301006Z 18006KT 23/17 A2984 RMK A01 T02250172  RH  072%=      5-min Rain = 0
KSM2 301007Z 19008KT 22/17 A2984 RMK A01 T02240171  RH  072%=      5-min Rain = 0
KSM2 301008Z 18007KT 22/17 A2984 RMK A01 T02240171  RH  072%=      5-min Rain = 0
KSM2 301009Z 19007KT 22/17 A2984 RMK A01 T02230171  RH  072%=      5-min Rain = 0
KSM2 301010Z 19007KT 22/17 A2984 RMK A01 T02220171  RH  073%=      5-min Rain = 0
KSM2 301011Z 19008KT 22/17 A2983 RMK A01 T02210171  RH  073%=      5-min Rain = 0
KSM2 301012Z 19009KT 22/17 A2983 RMK A01 T02210171  RH  073%=      5-min Rain = 0
KSM2 301013Z 19009KT 22/17 A2983 RMK A01 T02210171  RH  073%=      5-min Rain = 0
KSM2 301014Z 20009KT 22/17 A2983 RMK A01 T02210171  RH  074%=      5-min Rain = 0
KSM2 301015Z 19010KT 22/17 A2983 RMK A01 T02210171  RH  074%=      5-min Rain = 0
KSM2 301016Z 20009KT 22/17 A2983 RMK A01 T02210171  RH  073%=      5-min Rain = 0
KSM2 301017Z 20009KT 22/17 A2983 RMK A01 T02220172  RH  073%=      5-min Rain = 0
KSM2 301018Z 20010KT 22/17 A2983 RMK A01 T02220172  RH  073%=      5-min Rain = 0
KSM2 301019Z 20009KT 22/17 A2983 RMK A01 T02220172  RH  073%=      5-min Rain = 0
KSM2 301020Z 19010KT 22/17 A2983 RMK A01 T02220172  RH  073%=      5-min Rain = 0
KSM2 301021Z 19009KT 22/17 A2983 RMK A01 T02220172  RH  073%=      5-min Rain = 0
KSM2 301022Z 19009KT 22/17 A2983 RMK A01 T02220172  RH  073%=      5-min Rain = 0
KSM2 301023Z 19009KT 22/17 A2983 RMK A01 T02220172  RH  073%=      5-min Rain = 0
KSM2 301024Z 19008KT 22/17 A2983 RMK A01 T02220172  RH  073%=      5-min Rain = 0
KSM2 301025Z 19007KT 22/17 A2984 RMK A01 T02220172  RH  073%=      5-min Rain = 0
KSM2 301026Z 19007KT 22/17 A2984 RMK A01 T02220172  RH  073%=      5-min Rain = 0
KSM2 301027Z 18007KT 22/17 A2984 RMK A01 T02220172  RH  073%=      5-min Rain = 0
KSM2 301028Z 18007KT 22/17 A2984 RMK A01 T02210172  RH  073%=      5-min Rain = 0
KSM2 301029Z 17008KT 22/17 A2984 RMK A01 T02220172  RH  073%=      5-min Rain = 0
KSM2 301030Z 17008KT 22/17 A2984 RMK A01 T02220172  RH  073%=      5-min Rain = 0
KSM2 301031Z 17007KT 22/17 A2984 RMK A01 T02220172  RH  073%=      5-min Rain = 0
KSM2 301032Z 17007KT 22/17 A2984 RMK A01 T02220172  RH  073%=      5-min Rain = 0
KSM2 301033Z 17007KT 22/17 A2984 RMK A01 T02220172  RH  073%=      5-min Rain = 0
KSM2 301034Z 18008KT 22/17 A2984 RMK A01 T02220172  RH  073%=      5-min Rain = 0
KSM2 301035Z 17007KT 22/17 A2984 RMK A01 T02220172  RH  073%=      5-min Rain = 0
KSM2 301036Z 18009KT 22/17 A2984 RMK A01 T02220172  RH  073%=      5-min Rain = 0
KSM2 301037Z 18008KT 22/17 A2984 RMK A01 T02220172  RH  073%=      5-min Rain = 0
KSM2 301038Z 18009KT 22/17 A2984 RMK A01 T02210172  RH  074%=      5-min Rain = 0
KSM2 301039Z 18008KT 22/17 A2984 RMK A01 T02210172  RH  074%=      5-min Rain = 0
KSM2 301040Z 18008KT 22/17 A2984 RMK A01 T02210172  RH  074%=      5-min Rain = 0
KSM2 301041Z 19008KT 22/17 A2984 RMK A01 T02200171  RH  074%=      5-min Rain = 0
KSM2 301042Z 19009KT 22/17 A2984 RMK A01 T02190171  RH  074%=      5-min Rain = 0
KSM2 301043Z 19009KT 22/17 A2984 RMK A01 T02190171  RH  074%=      5-min Rain = 0
KSM2 301044Z 19010KT 22/17 A2984 RMK A01 T02180171  RH  075%=      5-min Rain = 0
KSM2 301045Z 20010KT 22/17 A2984 RMK A01 T02180171  RH  075%=      5-min Rain = 0
KSM2 301046Z 20010KT 22/17 A2984 RMK A01 T02180171  RH  075%=      5-min Rain = 0
KSM2 301047Z 20010KT 22/17 A2984 RMK A01 T02180171  RH  075%=      5-min Rain = 0
KSM2 301048Z 20008KT 22/17 A2984 RMK A01 T02180172  RH  075%=      5-min Rain = 0
KSM2 301049Z 20009KT 22/17 A2984 RMK A01 T02180171  RH  075%=      5-min Rain = 0
KSM2 301050Z 21009KT 22/17 A2984 RMK A01 T02180171  RH  075%=      5-min Rain = 0
KSM2 301051Z 21009KT 22/17 A2984 RMK A01 T02180171  RH  075%=      5-min Rain = 0
KSM2 301052Z 20009KT 22/17 A2984 RMK A01 T02180171  RH  075%=      5-min Rain = 0
KSM2 301053Z 20010KT 22/17 A2984 RMK A01 T02180171  RH  075%=      5-min Rain = 0
KSM2 301054Z 20009KT 22/17 A2984 RMK A01 T02180171  RH  075%=      5-min Rain = 0
KSM2 301055Z 20008KT 22/17 A2984 RMK A01 T02180172  RH  075%=      5-min Rain = 0
KSM2 301056Z 20008KT 22/17 A2984 RMK A01 T02180172  RH  075%=      5-min Rain = 0
KSM2 301057Z 20009KT 22/17 A2984 RMK A01 T02180172  RH  075%=      5-min Rain = 0
KSM2 301058Z 20009KT 22/17 A2984 RMK A01 T02180172  RH  075%=      5-min Rain = 0
KSM2 301059Z 19009KT 22/17 A2984 RMK A01 T02180172  RH  075%=      5-min Rain = 0
KSM2 301100Z 19008KT 22/17 A2985 RMK A01 T02180171  RH  075%=      5-min Rain = 0
KSM2 301101Z 18005KT 22/17 A2985 RMK A01 T02180171  RH  075%=      5-min Rain = 0
KSM2 301102Z 18007KT 22/17 A2985 RMK A01 T02170171  RH  075%=      5-min Rain = 0
KSM2 301103Z 17008KT 22/17 A2985 RMK A01 T02170172  RH  075%=      5-min Rain = 0
KSM2 301104Z 16007KT 22/17 A2985 RMK A01 T02170172  RH  076%=      5-min Rain = 0
KSM2 301105Z 17007KT 22/17 A2985 RMK A01 T02170172  RH  075%=      5-min Rain = 0
KSM2 301106Z 17009KT 22/17 A2985 RMK A01 T02180172  RH  075%=      5-min Rain = 0
KSM2 301107Z 17008KT 22/17 A2985 RMK A01 T02180172  RH  075%=      5-min Rain = 0
KSM2 301108Z 16007KT 22/17 A2985 RMK A01 T02170172  RH  075%=      5-min Rain = 0
KSM2 301109Z 17006KT 22/17 A2985 RMK A01 T02170172  RH  075%=      5-min Rain = 0
KSM2 301110Z 17008KT 22/17 A2985 RMK A01 T02170171  RH  075%=      5-min Rain = 0
KSM2 301111Z 17008KT 22/17 A2985 RMK A01 T02170172  RH  076%=      5-min Rain = 0
KSM2 301112Z 17006KT 22/17 A2985 RMK A01 T02170172  RH  076%=      5-min Rain = 0
KSM2 301113Z 17007KT 22/17 A2985 RMK A01 T02160171  RH  076%=      5-min Rain = 0
KSM2 301114Z 18008KT 22/17 A2985 RMK A01 T02160172  RH  076%=      5-min Rain = 0
KSM2 301115Z 18007KT 22/17 A2985 RMK A01 T02160172  RH  076%=      5-min Rain = 0
KSM2 301116Z 19007KT 22/17 A2985 RMK A01 T02170172  RH  076%=      5-min Rain = 0
KSM2 301117Z 19007KT 22/17 A2985 RMK A01 T02160172  RH  076%=      5-min Rain = 0
KSM2 301118Z 19008KT 22/17 A2985 RMK A01 T02160172  RH  076%=      5-min Rain = 0
KSM2 301119Z 19008KT 22/17 A2985 RMK A01 T02150171  RH  076%=      5-min Rain = 0
KSM2 301120Z 20009KT 21/17 A2985 RMK A01 T02140171  RH  077%=      5-min Rain = 0
KSM2 301121Z 20009KT 21/17 A2985 RMK A01 T02130171  RH  077%=      5-min Rain = 0
KSM2 301122Z 20008KT 21/17 A2985 RMK A01 T02130172  RH  077%=      5-min Rain = 0
KSM2 301123Z 21008KT 21/17 A2985 RMK A01 T02130171  RH  077%=      5-min Rain = 0
KSM2 301124Z 21009KT 21/17 A2985 RMK A01 T02130171  RH  077%=      5-min Rain = 0
KSM2 301125Z 21010KT 21/17 A2985 RMK A01 T02130172  RH  077%=      5-min Rain = 0
KSM2 301126Z 21010KT 21/17 A2985 RMK A01 T02140172  RH  077%=      5-min Rain = 0
KSM2 301127Z 21010KT 21/17 A2985 RMK A01 T02140172  RH  077%=      5-min Rain = 0
KSM2 301128Z 20010KT 21/17 A2985 RMK A01 T02140172  RH  077%=      5-min Rain = 0
KSM2 301129Z 20010KT 22/17 A2985 RMK A01 T02150172  RH  076%=      5-min Rain = 0
KSM2 301130Z 21009KT 22/17 A2985 RMK A01 T02150172  RH  076%=      5-min Rain = 0
KSM2 301131Z 21009KT 22/17 A2985 RMK A01 T02150172  RH  076%=      5-min Rain = 0
KSM2 301132Z 21008KT 22/17 A2985 RMK A01 T02150172  RH  077%=      5-min Rain = 0
KSM2 301133Z 20008KT 21/17 A2985 RMK A01 T02140172  RH  077%=      5-min Rain = 0
KSM2 301134Z 20009KT 21/17 A2985 RMK A01 T02140172  RH  077%=      5-min Rain = 0
KSM2 301135Z 20008KT 21/17 A2985 RMK A01 T02140172  RH  077%=      5-min Rain = 0
KSM2 301136Z 20008KT 21/17 A2985 RMK A01 T02140172  RH  077%=      5-min Rain = 0
KSM2 301137Z 19009KT 21/17 A2986 RMK A01 T02140172  RH  077%=      5-min Rain = 0
KSM2 301138Z 19009KT 21/17 A2986 RMK A01 T02130172  RH  077%=      5-min Rain = 0
KSM2 301139Z 19008KT 21/17 A2986 RMK A01 T02130172  RH  077%=      5-min Rain = 0
KSM2 301140Z 19008KT 21/17 A2986 RMK A01 T02130172  RH  078%=      5-min Rain = 0
KSM2 301141Z 19008KT 21/17 A2986 RMK A01 T02130172  RH  078%=      5-min Rain = 0
KSM2 301142Z 19008KT 21/17 A2986 RMK A01 T02120172  RH  078%=      5-min Rain = 0
KSM2 301143Z 19008KT 21/17 A2986 RMK A01 T02120172  RH  078%=      5-min Rain = 0
KSM2 301144Z 19007KT 21/17 A2986 RMK A01 T02110172  RH  078%=      5-min Rain = 0
KSM2 301145Z 19007KT 21/17 A2986 RMK A01 T02110172  RH  078%=      5-min Rain = 0
KSM2 301146Z 19008KT 21/17 A2986 RMK A01 T02100172  RH  079%=      5-min Rain = 0
KSM2 301147Z 19008KT 21/17 A2986 RMK A01 T02100172  RH  079%=      5-min Rain = 0
KSM2 301148Z 19007KT 21/17 A2986 RMK A01 T02100172  RH  079%=      5-min Rain = 0
KSM2 301149Z 19008KT 21/17 A2986 RMK A01 T02100173  RH  079%=      5-min Rain = 0
KSM2 301150Z 20008KT 21/17 A2986 RMK A01 T02100172  RH  079%=      5-min Rain = 0
KSM2 301151Z 20007KT 21/17 A2986 RMK A01 T02100173  RH  079%=      5-min Rain = 0
KSM2 301152Z 20007KT 21/17 A2986 RMK A01 T02100173  RH  079%=      5-min Rain = 0
KSM2 301153Z 20007KT 21/17 A2986 RMK A01 T02110173  RH  079%=      5-min Rain = 0
KSM2 301154Z 20008KT 21/17 A2986 RMK A01 T02110173  RH  079%=      5-min Rain = 0
KSM2 301155Z 20008KT 21/17 A2986 RMK A01 T02110174  RH  079%=      5-min Rain = 0
KSM2 301156Z 20009KT 21/17 A2986 RMK A01 T02120174  RH  079%=      5-min Rain = 0
KSM2 301157Z 20008KT 21/17 A2986 RMK A01 T02120174  RH  079%=      5-min Rain = 0
KSM2 301158Z 20009KT 21/17 A2986 RMK A01 T02120174  RH  079%=      5-min Rain = 0
KSM2 301159Z 20009KT 21/18 A2986 RMK A01 T02130175  RH  079%=      5-min Rain = 0
KSM2 301200Z 21010KT 21/18 A2986 RMK A01 T02140175  RH  078%=      5-min Rain = 0
KSM2 301201Z 20009KT 21/18 A2986 RMK A01 T02140175  RH  078%=      5-min Rain = 0
KSM2 301202Z 20009KT 22/18 A2986 RMK A01 T02150175  RH  078%=      5-min Rain = 0
KSM2 301203Z 21011KT 22/18 A2986 RMK A01 T02150175  RH  078%=      5-min Rain = 0
KSM2 301204Z 21010KT 22/18 A2986 RMK A01 T02150176  RH  078%=      5-min Rain = 0
KSM2 301205Z 21012KT 22/18 A2986 RMK A01 T02160176  RH  078%=      5-min Rain = 0
KSM2 301206Z 21011KT 22/18 A2987 RMK A01 T02170176  RH  078%=      5-min Rain = 0
KSM2 301207Z 21011KT 22/18 A2987 RMK A01 T02160176  RH  078%=      5-min Rain = 0
KSM2 301208Z 21011KT 22/18 A2987 RMK A01 T02170176  RH  078%=      5-min Rain = 0
KSM2 301209Z 21011KT 22/18 A2987 RMK A01 T02170177  RH  078%=      5-min Rain = 0
KSM2 301210Z 21011KT 22/18 A2987 RMK A01 T02170177  RH  078%=      5-min Rain = 0
KSM2 301211Z 21011KT 22/18 A2987 RMK A01 T02180177  RH  078%=      5-min Rain = 0
KSM2 301212Z 21011KT 22/18 A2987 RMK A01 T02180177  RH  078%=      5-min Rain = 0
KSM2 301213Z 21011KT 22/18 A2987 RMK A01 T02180177  RH  078%=      5-min Rain = 0
KSM2 301214Z 20010KT 22/18 A2987 RMK A01 T02180177  RH  078%=      5-min Rain = 0
KSM2 301215Z 20010KT 22/18 A2987 RMK A01 T02190178  RH  077%=      5-min Rain = 0
KSM2 301216Z 20010KT 22/18 A2987 RMK A01 T02190178  RH  078%=      5-min Rain = 0
KSM2 301217Z 20010KT 22/18 A2987 RMK A01 T02180178  RH  078%=      5-min Rain = 0
KSM2 301218Z 20010KT 22/18 A2987 RMK A01 T02190178  RH  078%=      5-min Rain = 0
KSM2 301219Z 20009KT 22/18 A2987 RMK A01 T02190178  RH  078%=      5-min Rain = 0
KSM2 301220Z 20011KT 22/18 A2987 RMK A01 T02190179  RH  078%=      5-min Rain = 0
KSM2 301221Z 20012KT 22/18 A2987 RMK A01 T02190178  RH  078%=      5-min Rain = 0
KSM2 301222Z 20012KT 22/18 A2987 RMK A01 T02190178  RH  078%=      5-min Rain = 0
KSM2 301223Z 20011KT 22/18 A2987 RMK A01 T02190179  RH  078%=      5-min Rain = 0
KSM2 301224Z 20010KT 22/18 A2987 RMK A01 T02190179  RH  078%=      5-min Rain = 0
KSM2 301225Z 20010KT 22/18 A2987 RMK A01 T02200179  RH  078%=      5-min Rain = 0
KSM2 301226Z 20010KT 22/18 A2987 RMK A01 T02200179  RH  078%=      5-min Rain = 0
KSM2 301227Z 20010KT 22/18 A2987 RMK A01 T02200179  RH  078%=      5-min Rain = 0
KSM2 301228Z 20011KT 22/18 A2987 RMK A01 T02200179  RH  078%=      5-min Rain = 0
KSM2 301229Z 19012KT 22/18 A2987 RMK A01 T02200179  RH  077%=      5-min Rain = 0
KSM2 301230Z 20012KT 22/18 A2987 RMK A01 T02210179  RH  077%=      5-min Rain = 0
KSM2 301231Z 20011KT 22/18 A2987 RMK A01 T02210179  RH  077%=      5-min Rain = 0
KSM2 301232Z 20010KT 22/18 A2987 RMK A01 T02210179  RH  077%=      5-min Rain = 0
KSM2 301233Z 21010KT 22/18 A2987 RMK A01 T02210180  RH  077%=      5-min Rain = 0
KSM2 301234Z 20012KT 22/18 A2987 RMK A01 T02220179  RH  077%=      5-min Rain = 0
KSM2 301235Z 21011KT 22/18 A2987 RMK A01 T02220180  RH  077%=      5-min Rain = 0
KSM2 301236Z 21013KT 22/18 A2987 RMK A01 T02220180  RH  077%=      5-min Rain = 0
KSM2 301237Z 21013KT 22/18 A2987 RMK A01 T02230179  RH  076%=      5-min Rain = 0
KSM2 301238Z 21012KT 22/18 A2987 RMK A01 T02230180  RH  076%=      5-min Rain = 0
KSM2 301239Z 21012KT 22/18 A2987 RMK A01 T02240180  RH  076%=      5-min Rain = 0
KSM2 301240Z 21012KT 22/18 A2987 RMK A01 T02240180  RH  076%=      5-min Rain = 0
KSM2 301241Z 21012KT 22/18 A2987 RMK A01 T02240180  RH  076%=      5-min Rain = 0
KSM2 301242Z 21013KT 22/18 A2987 RMK A01 T02240180  RH  076%=      5-min Rain = 0
KSM2 301243Z 21014KT 22/18 A2987 RMK A01 T02240180  RH  076%=      5-min Rain = 0
KSM2 301244Z 22012KT 22/18 A2988 RMK A01 T02240180  RH  076%=      5-min Rain = 0
KSM2 301245Z 21012KT 23/18 A2988 RMK A01 T02250180  RH  076%=      5-min Rain = 0
KSM2 301246Z 21013KT 23/18 A2988 RMK A01 T02250180  RH  076%=      5-min Rain = 0
KSM2 301247Z 21012KT 23/18 A2988 RMK A01 T02250180  RH  076%=      5-min Rain = 0
KSM2 301248Z 21012KT 23/18 A2988 RMK A01 T02260181  RH  076%=      5-min Rain = 0
KSM2 301249Z 21012KT 23/18 A2988 RMK A01 T02260180  RH  075%=      5-min Rain = 0
KSM2 301250Z 22011KT 23/18 A2988 RMK A01 T02260181  RH  075%=      5-min Rain = 0
KSM2 301251Z 22011KT 23/18 A2988 RMK A01 T02260181  RH  075%=      5-min Rain = 0
KSM2 301252Z 22013KT 23/18 A2988 RMK A01 T02270180  RH  075%=      5-min Rain = 0
KSM2 301253Z 21011KT 23/18 A2988 RMK A01 T02270180  RH  075%=      5-min Rain = 0
KSM2 301254Z 21011KT 23/18 A2988 RMK A01 T02270181  RH  075%=      5-min Rain = 0
KSM2 301255Z 21014KT 23/18 A2988 RMK A01 T02280180  RH  075%=      5-min Rain = 0
KSM2 301256Z 21013KT 23/18 A2988 RMK A01 T02280180  RH  074%=      5-min Rain = 0
KSM2 301257Z 21013KT 23/18 A2988 RMK A01 T02280180  RH  074%=      5-min Rain = 0
KSM2 301258Z 21013KT 23/18 A2988 RMK A01 T02280180  RH  074%=      5-min Rain = 0
KSM2 301259Z 21014KT 23/18 A2988 RMK A01 T02280180  RH  074%=      5-min Rain = 0
KSM2 301300Z 21014KT 23/18 A2988 RMK A01 T02290180  RH  074%=      5-min Rain = 0
KSM2 301301Z 21013KT 23/18 A2988 RMK A01 T02290180  RH  074%=      5-min Rain = 0
KSM2 301302Z 21011KT 23/18 A2988 RMK A01 T02300180  RH  074%=      5-min Rain = 0
KSM2 301303Z 22011KT 23/18 A2989 RMK A01 T02300180  RH  073%=      5-min Rain = 0
KSM2 301304Z 22009KT 23/18 A2989 RMK A01 T02310180  RH  073%=      5-min Rain = 0
KSM2 301305Z 22012KT 23/18 A2989 RMK A01 T02320180  RH  073%=      5-min Rain = 0
KSM2 301306Z 22011KT 23/18 A2989 RMK A01 T02320180  RH  072%=      5-min Rain = 0
KSM2 301307Z 21012KT 23/18 A2989 RMK A01 T02320180  RH  072%=      5-min Rain = 0
KSM2 301308Z 21013KT 23/18 A2989 RMK A01 T02320180  RH  072%=      5-min Rain = 0
KSM2 301309Z 21013KT 23/18 A2989 RMK A01 T02330180  RH  072%=      5-min Rain = 0
KSM2 301310Z 22012KT 23/18 A2989 RMK A01 T02330180  RH  072%=      5-min Rain = 0
KSM2 301311Z 21011KT 23/18 A2989 RMK A01 T02330180  RH  072%=      5-min Rain = 0
KSM2 301312Z 21012KT 23/18 A2989 RMK A01 T02340180  RH  072%=      5-min Rain = 0
KSM2 301313Z 22013KT 23/18 A2989 RMK A01 T02340180  RH  071%=      5-min Rain = 0
KSM2 301314Z 22013KT 24/18 A2989 RMK A01 T02350179  RH  071%=      5-min Rain = 0
KSM2 301315Z 21014KT 24/18 A2989 RMK A01 T02350179  RH  071%=      5-min Rain = 0
KSM2 301316Z 22012KT 24/18 A2989 RMK A01 T02350179  RH  071%=      5-min Rain = 0
KSM2 301317Z 22014KT 24/18 A2989 RMK A01 T02360180  RH  071%=      5-min Rain = 0
KSM2 301318Z 22015KT 24/18 A2989 RMK A01 T02360179  RH  070%=      5-min Rain = 0
KSM2 301319Z 22014KT 24/18 A2989 RMK A01 T02360179  RH  071%=      5-min Rain = 0
KSM2 301320Z 22013KT 24/18 A2989 RMK A01 T02360179  RH  070%=      5-min Rain = 0
KSM2 301321Z 22013KT 24/18 A2989 RMK A01 T02360179  RH  070%=      5-min Rain = 0
KSM2 301322Z 22012KT 24/18 A2989 RMK A01 T02370179  RH  070%=      5-min Rain = 0
KSM2 301323Z 22013KT 24/18 A2989 RMK A01 T02370179  RH  070%=      5-min Rain = 0
KSM2 301324Z 23011KT 24/18 A2989 RMK A01 T02370179  RH  070%=      5-min Rain = 0
KSM2 301325Z 22011KT 24/18 A2989 RMK A01 T02370178  RH  070%=      5-min Rain = 0
KSM2 301326Z 22011KT 24/18 A2989 RMK A01 T02380179  RH  070%=      5-min Rain = 0
KSM2 301327Z 22013KT 24/18 A299 RMK A01 T02390179  RH  069%=      5-min Rain = 0
KSM2 301328Z 22011KT 24/18 A299 RMK A01 T02390179  RH  069%=      5-min Rain = 0
KSM2 301329Z 22011KT 24/18 A299 RMK A01 T02390179  RH  069%=      5-min Rain = 0
KSM2 301330Z 22010KT 24/18 A299 RMK A01 T02400180  RH  069%=      5-min Rain = 0
KSM2 301331Z 23012KT 24/18 A299 RMK A01 T02410179  RH  068%=      5-min Rain = 0
KSM2 301332Z 23010KT 24/18 A299 RMK A01 T02410179  RH  068%=      5-min Rain = 0
KSM2 301333Z 22009KT 24/18 A299 RMK A01 T02420180  RH  069%=      5-min Rain = 0
KSM2 301334Z 21010KT 24/18 A299 RMK A01 T02430181  RH  068%=      5-min Rain = 0
KSM2 301335Z 21012KT 24/18 A299 RMK A01 T02440179  RH  067%=      5-min Rain = 0
KSM2 301336Z 21012KT 24/18 A299 RMK A01 T02430178  RH  067%=      5-min Rain = 0
KSM2 301337Z 21013KT 24/18 A299 RMK A01 T02430178  RH  067%=      5-min Rain = 0
KSM2 301338Z 22012KT 24/18 A299 RMK A01 T02430178  RH  067%=      5-min Rain = 0
KSM2 301339Z 22012KT 24/18 A299 RMK A01 T02430178  RH  067%=      5-min Rain = 0
KSM2 301340Z 22010KT 24/18 A299 RMK A01 T02430178  RH  067%=      5-min Rain = 0
KSM2 301341Z 22012KT 24/18 A299 RMK A01 T02430177  RH  067%=      5-min Rain = 0
KSM2 301342Z 23011KT 24/18 A299 RMK A01 T02440178  RH  067%=      5-min Rain = 0
KSM2 301343Z 23011KT 25/18 A299 RMK A01 T02450178  RH  066%=      5-min Rain = 0
KSM2 301344Z 23010KT 25/18 A299 RMK A01 T02460179  RH  066%=      5-min Rain = 0
KSM2 301345Z 22011KT 25/18 A299 RMK A01 T02460178  RH  066%=      5-min Rain = 0
KSM2 301346Z 22013KT 25/18 A299 RMK A01 T02460178  RH  066%=      5-min Rain = 0
KSM2 301347Z 22012KT 25/18 A299 RMK A01 T02460177  RH  065%=      5-min Rain = 0
KSM2 301348Z 22012KT 25/18 A299 RMK A01 T02460177  RH  065%=      5-min Rain = 0
KSM2 301349Z 22011KT 25/18 A299 RMK A01 T02460177  RH  065%=      5-min Rain = 0
KSM2 301350Z 22011KT 25/18 A299 RMK A01 T02480178  RH  065%=      5-min Rain = 0
KSM2 301351Z 22012KT 25/18 A299 RMK A01 T02490177  RH  064%=      5-min Rain = 0
KSM2 301352Z 23010KT 25/18 A299 RMK A01 T02490177  RH  064%=      5-min Rain = 0
KSM2 301353Z 23010KT 25/18 A299 RMK A01 T02490178  RH  065%=      5-min Rain = 0
KSM2 301354Z 22012KT 25/17 A299 RMK A01 T02490174  RH  063%=      5-min Rain = 0
KSM2 301355Z 23011KT 25/18 A299 RMK A01 T02500175  RH  063%=      5-min Rain = 0
KSM2 301356Z 24012KT 25/18 A299 RMK A01 T02510175  RH  063%=      5-min Rain = 0
KSM2 301357Z 24012KT 25/17 A299 RMK A01 T02510173  RH  062%=      5-min Rain = 0
KSM2 301358Z 23011KT 25/17 A299 RMK A01 T02510174  RH  062%=      5-min Rain = 0
KSM2 301359Z 23011KT 25/17 A299 RMK A01 T02510174  RH  062%=      5-min Rain = 0
KSM2 301400Z 23010KT 25/17 A299 RMK A01 T02520174  RH  062%=      5-min Rain = 0
KSM2 301401Z 23011KT 25/17 A299 RMK A01 T02530173  RH  061%=      5-min Rain = 0
KSM2 301402Z 23011KT 25/17 A299 RMK A01 T02530173  RH  061%=      5-min Rain = 0
KSM2 301403Z 22012KT 25/18 A299 RMK A01 T02520175  RH  062%=      5-min Rain = 0
KSM2 301404Z 22011KT 25/17 A299 RMK A01 T02530173  RH  061%=      5-min Rain = 0
KSM2 301405Z 22012KT 25/17 A299 RMK A01 T02530173  RH  061%=      5-min Rain = 0
KSM2 301406Z 22011KT 25/17 A299 RMK A01 T02540172  RH  060%=      5-min Rain = 0
KSM2 301407Z 22012KT 25/17 A299 RMK A01 T02540171  RH  060%=      5-min Rain = 0
KSM2 301408Z 23013KT 25/17 A299 RMK A01 T02540172  RH  060%=      5-min Rain = 0
KSM2 301409Z 23010KT 26/17 A299 RMK A01 T02550173  RH  060%=      5-min Rain = 0
KSM2 301410Z 23009KT 26/17 A299 RMK A01 T02550174  RH  061%=      5-min Rain = 0
KSM2 301411Z 22011KT 26/17 A299 RMK A01 T02580173  RH  059%=      5-min Rain = 0
KSM2 301412Z 22012KT 26/17 A299 RMK A01 T02590172  RH  059%=      5-min Rain = 0
KSM2 301413Z 22012KT 26/17 A299 RMK A01 T02580172  RH  059%=      5-min Rain = 0
KSM2 301414Z 22012KT 26/17 A299 RMK A01 T02570171  RH  059%=      5-min Rain = 0
KSM2 301415Z 22011KT 26/17 A299 RMK A01 T02580170  RH  058%=      5-min Rain = 0
KSM2 301416Z 23009KT 26/17 A299 RMK A01 T02590170  RH  058%=      5-min Rain = 0
KSM2 301417Z 24012KT 26/17 A299 RMK A01 T02610168  RH  056%=      5-min Rain = 0
KSM2 301418Z 24011KT 26/17 A299 RMK A01 T02610167  RH  056%=      5-min Rain = 0
KSM2 301419Z 23011KT 26/17 A299 RMK A01 T02610167  RH  056%=      5-min Rain = 0
KSM2 301420Z 23014KT 26/16 A299 RMK A01 T02610163  RH  055%=      5-min Rain = 0
KSM2 301421Z 23012KT 26/16 A299 RMK A01 T02610164  RH  055%=      5-min Rain = 0
KSM2 301422Z 23013KT 26/16 A299 RMK A01 T02620163  RH  055%=      5-min Rain = 0
KSM2 301423Z 23013KT 26/16 A2991 RMK A01 T02620163  RH  054%=      5-min Rain = 0
KSM2 301424Z 23011KT 26/17 A2991 RMK A01 T02620165  RH  055%=      5-min Rain = 0
KSM2 301425Z 23011KT 26/17 A2991 RMK A01 T02630166  RH  055%=      5-min Rain = 0
KSM2 301426Z 23012KT 26/17 A2991 RMK A01 T02630166  RH  055%=      5-min Rain = 0
KSM2 301427Z 23013KT 26/17 A2991 RMK A01 T02630166  RH  055%=      5-min Rain = 0
KSM2 301428Z 23011KT 26/17 A2991 RMK A01 T02630167  RH  055%=      5-min Rain = 0
KSM2 301429Z 24012KT 26/17 A2991 RMK A01 T02640165  RH  055%=      5-min Rain = 0
KSM2 301430Z 24011KT 26/16 A2991 RMK A01 T02640164  RH  054%=      5-min Rain = 0
KSM2 301431Z 24012KT 27/17 A2991 RMK A01 T02650165  RH  054%=      5-min Rain = 0
KSM2 301432Z 23011KT 27/16 A2991 RMK A01 T02660163  RH  053%=      5-min Rain = 0
KSM2 301433Z 24011KT 27/16 A2991 RMK A01 T02670159  RH  051%=      5-min Rain = 0
KSM2 301434Z 24010KT 27/16 A2991 RMK A01 T02680162  RH  052%=      5-min Rain = 0
KSM2 301435Z 23011KT 27/16 A2991 RMK A01 T02690161  RH  052%=      5-min Rain = 0
KSM2 301436Z 24011KT 27/16 A2991 RMK A01 T02690160  RH  051%=      5-min Rain = 0
KSM2 301437Z 24012KT 27/16 A2991 RMK A01 T02700158  RH  050%=      5-min Rain = 0
KSM2 301438Z 24011KT 27/16 A2991 RMK A01 T02710156  RH  049%=      5-min Rain = 0
KSM2 301439Z 25010KT 27/15 A2991 RMK A01 T02720154  RH  048%=      5-min Rain = 0
KSM2 301440Z 24009KT 27/16 A2991 RMK A01 T02730155  RH  048%=      5-min Rain = 0
KSM2 301441Z 24012KT 27/16 A2991 RMK A01 T02740157  RH  049%=      5-min Rain = 0
KSM2 301442Z 25010KT 27/16 A2991 RMK A01 T02740158  RH  049%=      5-min Rain = 0
KSM2 301443Z 25011KT 28/16 A2991 RMK A01 T02770157  RH  048%=      5-min Rain = 0
KSM2 301444Z 25012KT 28/16 A2991 RMK A01 T02770155  RH  047%=      5-min Rain = 0
KSM2 301445Z 24012KT 28/15 A2991 RMK A01 T02770153  RH  047%=      5-min Rain = 0
KSM2 301446Z 24011KT 28/15 A2991 RMK A01 T02760154  RH  047%=      5-min Rain = 0
KSM2 301447Z 24011KT 28/15 A2991 RMK A01 T02760154  RH  047%=      5-min Rain = 0
KSM2 301448Z 25011KT 28/15 A2991 RMK A01 T02770149  RH  046%=      5-min Rain = 0
KSM2 301449Z 25011KT 28/15 A2991 RMK A01 T02780151  RH  046%=      5-min Rain = 0
KSM2 301450Z 25012KT 28/15 A2991 RMK A01 T02790153  RH  046%=      5-min Rain = 0
KSM2 301451Z 25012KT 28/15 A2991 RMK A01 T02800151  RH  045%=      5-min Rain = 0
KSM2 301452Z 24012KT 28/15 A2991 RMK A01 T02790154  RH  046%=      5-min Rain = 0
KSM2 301453Z 24013KT 28/15 A2991 RMK A01 T02800153  RH  046%=      5-min Rain = 0
KSM2 301454Z 24012KT 28/15 A2991 RMK A01 T02780152  RH  046%=      5-min Rain = 0
KSM2 301455Z 24012KT 28/15 A2991 RMK A01 T02780151  RH  046%=      5-min Rain = 0
KSM2 301456Z 26013KT 28/15 A2991 RMK A01 T02790146  RH  044%=      5-min Rain = 0
KSM2 301457Z 26009KT 28/15 A2991 RMK A01 T02810145  RH  044%=      5-min Rain = 0
KSM2 301458Z 25012KT 28/15 A2991 RMK A01 T02830150  RH  044%=      5-min Rain = 0
KSM2 301459Z 24010KT 28/15 A2991 RMK A01 T02840148  RH  043%=      5-min Rain = 0
KSM2 301500Z 25010KT 28/15 A2991 RMK A01 T02830148  RH  044%=      5-min Rain = 0
KSM2 301501Z 25012KT 29/15 A2991 RMK A01 T02850145  RH  042%=      5-min Rain = 0
KSM2 301502Z 25011KT 29/15 A2991 RMK A01 T02850148  RH  043%=      5-min Rain = 0
KSM2 301503Z 25011G16KT 29/14 A2991 RMK A01 T02900139  RH  040%=      5-min Rain = 0
KSM2 301504Z 26012KT 29/13 A2991 RMK A01 T02930134  RH  038%=      5-min Rain = 0
KSM2 301505Z 25011KT 29/14 A2991 RMK A01 T02910137  RH  039%=      5-min Rain = 0
KSM2 301506Z 26009KT 29/14 A2991 RMK A01 T02930140  RH  039%=      5-min Rain = 0
KSM2 301507Z 26012KT 29/14 A2991 RMK A01 T02940142  RH  039%=      5-min Rain = 0
KSM2 301508Z 26011KT 29/13 A2991 RMK A01 T02930132  RH  037%=      5-min Rain = 0
KSM2 301509Z 26011KT 29/14 A2991 RMK A01 T02930136  RH  038%=      5-min Rain = 0
KSM2 301510Z 27013KT 30/13 A2991 RMK A01 T02950129  RH  036%=      5-min Rain = 0
KSM2 301511Z 26012KT 30/12 A2991 RMK A01 T02970122  RH  034%=      5-min Rain = 0
KSM2 301512Z 27011KT 30/12 A2991 RMK A01 T02990122  RH  034%=      5-min Rain = 0
KSM2 301513Z 28013KT 30/12 A2991 RMK A01 T03010122  RH  033%=      5-min Rain = 0
KSM2 301514Z 27011KT 30/12 A2991 RMK A01 T03000124  RH  034%=      5-min Rain = 0
KSM2 301515Z 28010KT 30/13 A2991 RMK A01 T02990129  RH  035%=      5-min Rain = 0
KSM2 301516Z 28010KT 30/13 A2991 RMK A01 T03020125  RH  034%=      5-min Rain = 0
KSM2 301517Z 28009KT 30/12 A2991 RMK A01 T03010123  RH  033%=      5-min Rain = 0
KSM2 301518Z 27011KT 30/12 A2991 RMK A01 T03010115  RH  032%=      5-min Rain = 0
KSM2 301519Z 26010KT 30/12 A2991 RMK A01 T03020115  RH  032%=      5-min Rain = 0
KSM2 301520Z 27010KT 30/11 A2991 RMK A01 T03030112  RH  031%=      5-min Rain = 0
KSM2 301521Z 27010KT 31/12 A2991 RMK A01 T03060117  RH  031%=      5-min Rain = 0
KSM2 301522Z 29012KT 31/10 A2991 RMK A01 T03080104  RH  028%=      5-min Rain = 0
KSM2 301523Z 27012KT 31/11 A2991 RMK A01 T03080105  RH  029%=      5-min Rain = 0
KSM2 301524Z 28010KT 31/10 A2991 RMK A01 T03080103  RH  028%=      5-min Rain = 0
KSM2 301525Z 29012KT 31/11 A2991 RMK A01 T03070107  RH  029%=      5-min Rain = 0
KSM2 301526Z 28011KT 31/11 A2991 RMK A01 T03090109  RH  029%=      5-min Rain = 0
KSM2 301527Z 28009KT 31/11 A2991 RMK A01 T03110109  RH  029%=      5-min Rain = 0
KSM2 301528Z 28011KT 31/11 A2991 RMK A01 T03120107  RH  028%=      5-min Rain = 0
KSM2 301529Z 29013KT 31/09 A2991 RMK A01 T03120088  RH  025%=      5-min Rain = 0
KSM2 301530Z 29014KT 31/08 A2991 RMK A01 T03120079  RH  024%=      5-min Rain = 0
KSM2 301531Z 28016KT 31/05 A2991 RMK A01 T03130054  RH  020%=      5-min Rain = 0
KSM2 301532Z 30016KT 32/05 A2991 RMK A01 T03150048  RH  019%=      5-min Rain = 0
KSM2 301533Z 29014KT 32/04 A2991 RMK A01 T03160044  RH  018%=      5-min Rain = 0
KSM2 301534Z 29013KT 32/04 A2991 RMK A01 T03160042  RH  018%=      5-min Rain = 0
KSM2 301535Z 29012KT 32/05 A2991 RMK A01 T03160045  RH  018%=      5-min Rain = 0
KSM2 301536Z 29012KT 32/05 A2991 RMK A01 T03210048  RH  018%=      5-min Rain = 0
KSM2 301537Z 30013G18KT 32/05 A2991 RMK A01 T03230047  RH  018%=      5-min Rain = 0
KSM2 301538Z 30013KT 32/05 A2991 RMK A01 T03240045  RH  017%=      5-min Rain = 0
KSM2 301539Z 31012KT 32/04 A2991 RMK A01 T03230043  RH  017%=      5-min Rain = 0
KSM2 301540Z 29012KT 32/05 A2991 RMK A01 T03220047  RH  018%=      5-min Rain = 0
KSM2 301541Z 29010KT 33/05 A2991 RMK A01 T03250051  RH  018%=      5-min Rain = 0
KSM2 301542Z 28011KT 33/05 A2991 RMK A01 T03270050  RH  018%=      5-min Rain = 0
KSM2 301543Z 28012G17KT 33/05 A2991 RMK A01 T03260048  RH  018%=      5-min Rain = 0
KSM2 301544Z 28013KT 32/05 A2991 RMK A01 T03240046  RH  017%=      5-min Rain = 0
KSM2 301545Z 28013KT 32/04 A2991 RMK A01 T03210042  RH  017%=      5-min Rain = 0
KSM2 301546Z 28013G18KT 32/05 A2991 RMK A01 T03200045  RH  018%=      5-min Rain = 0
KSM2 301547Z 29014KT 32/05 A2991 RMK A01 T03230046  RH  018%=      5-min Rain = 0
KSM2 301548Z 28012KT 32/05 A2991 RMK A01 T03240045  RH  017%=      5-min Rain = 0
KSM2 301549Z 28013KT 33/05 A2991 RMK A01 T03260045  RH  017%=      5-min Rain = 0
KSM2 301550Z 28010KT 32/04 A2991 RMK A01 T03230044  RH  017%=      5-min Rain = 0
KSM2 301551Z 29011KT 32/04 A2991 RMK A01 T03220044  RH  017%=      5-min Rain = 0
KSM2 301552Z 30012KT 32/04 A2991 RMK A01 T03230043  RH  017%=      5-min Rain = 0
KSM2 301553Z 30012KT 33/04 A2991 RMK A01 T03250038  RH  016%=      5-min Rain = 0
KSM2 301554Z 31011KT 32/04 A2991 RMK A01 T03240039  RH  017%=      5-min Rain = 0
KSM2 301555Z 31012KT 33/04 A2991 RMK A01 T03250039  RH  017%=      5-min Rain = 0
KSM2 301556Z 32012KT 33/04 A2991 RMK A01 T03260038  RH  016%=      5-min Rain = 0
KSM2 301557Z 31012KT 33/04 A2991 RMK A01 T03260039  RH  016%=      5-min Rain = 0
KSM2 301558Z 31013KT 32/04 A2991 RMK A01 T03240037  RH  016%=      5-min Rain = 0
KSM2 301559Z 31011KT 32/04 A2991 RMK A01 T03220036  RH  016%=      5-min Rain = 0
KSM2 301600Z 31013G19KT 32/04 A2991 RMK A01 T03200036  RH  017%=      5-min Rain = 0
KSM2 301601Z 31015KT 32/04 A2991 RMK A01 T03220038  RH  017%=      5-min Rain = 0
KSM2 301602Z 31012KT 32/03 A2991 RMK A01 T03240033  RH  016%=      5-min Rain = 0
KSM2 301603Z 31010KT 32/03 A2991 RMK A01 T03210034  RH  016%=      5-min Rain = 0
KSM2 301604Z 29011KT 32/04 A2991 RMK A01 T03200036  RH  017%=      5-min Rain = 0
KSM2 301605Z 30015KT 32/03 A2991 RMK A01 T03240034  RH  016%=      5-min Rain = 0
KSM2 301606Z 31013KT 33/03 A2991 RMK A01 T03250029  RH  015%=      5-min Rain = 0
KSM2 301607Z 30012KT 32/03 A2992 RMK A01 T03240033  RH  016%=      5-min Rain = 0
KSM2 301608Z 32014KT 33/03 A2992 RMK A01 T03250032  RH  016%=      5-min Rain = 0
KSM2 301609Z 32014KT 33/03 A2992 RMK A01 T03260029  RH  015%=      5-min Rain = 0
KSM2 301610Z 31014KT 33/03 A2992 RMK A01 T03260034  RH  016%=      5-min Rain = 0
KSM2 301611Z 30014KT 33/04 A2992 RMK A01 T03270035  RH  016%=      5-min Rain = 0
KSM2 301612Z 32013KT 33/04 A2992 RMK A01 T03270035  RH  016%=      5-min Rain = 0
KSM2 301613Z 31012KT 33/04 A2991 RMK A01 T03250035  RH  016%=      5-min Rain = 0
KSM2 301614Z 31012KT 32/04 A2991 RMK A01 T03240035  RH  016%=      5-min Rain = 0
KSM2 301615Z 31013KT 33/03 A2991 RMK A01 T03250033  RH  016%=      5-min Rain = 0
KSM2 301616Z 31014KT 33/03 A2992 RMK A01 T03270032  RH  016%=      5-min Rain = 0
KSM2 301617Z 31013KT 33/04 A2992 RMK A01 T03280037  RH  016%=      5-min Rain = 0
KSM2 301618Z 31012KT 33/04 A2992 RMK A01 T03320037  RH  016%=      5-min Rain = 0
KSM2 301619Z 31011KT 33/04 A2992 RMK A01 T03270038  RH  016%=      5-min Rain = 0
KSM2 301620Z 32010KT 33/04 A2992 RMK A01 T03280036  RH  016%=      5-min Rain = 0
KSM2 301621Z 31013KT 33/04 A2992 RMK A01 T03300035  RH  016%=      5-min Rain = 0
KSM2 301622Z 32011KT 33/03 A2992 RMK A01 T03270031  RH  015%=      5-min Rain = 0
KSM2 301623Z 31012KT 32/04 A2992 RMK A01 T03240036  RH  016%=      5-min Rain = 0
KSM2 301624Z 30015KT 33/04 A2992 RMK A01 T03290038  RH  016%=      5-min Rain = 0
KSM2 301625Z 31012KT 34/04 A2992 RMK A01 T03350041  RH  016%=      5-min Rain = 0
KSM2 301626Z 31011KT 34/04 A2992 RMK A01 T03350036  RH  015%=      5-min Rain = 0
KSM2 301627Z 30011KT 33/04 A2992 RMK A01 T03320036  RH  016%=      5-min Rain = 0
KSM2 301628Z 30008KT 33/04 A2992 RMK A01 T03310035  RH  016%=      5-min Rain = 0
KSM2 301629Z 30010KT 33/04 A2992 RMK A01 T03290037  RH  016%=      5-min Rain = 0
KSM2 301630Z 31014KT 33/04 A2992 RMK A01 T03290039  RH  016%=      5-min Rain = 0
KSM2 301631Z 31012KT 33/04 A2991 RMK A01 T03300036  RH  016%=      5-min Rain = 0
KSM2 301632Z 30013G18KT 33/04 A2992 RMK A01 T03310039  RH  016%=      5-min Rain = 0
KSM2 301633Z 30013KT 33/03 A2992 RMK A01 T03310033  RH  015%=      5-min Rain = 0
KSM2 301634Z 31013KT 33/03 A2992 RMK A01 T03310032  RH  015%=      5-min Rain = 0
KSM2 301635Z 31015KT 33/03 A2992 RMK A01 T03330032  RH  015%=      5-min Rain = 0
KSM2 301636Z 30013KT 33/03 A2992 RMK A01 T03340031  RH  015%=      5-min Rain = 0
KSM2 301637Z 30010KT 33/03 A2992 RMK A01 T03330028  RH  015%=      5-min Rain = 0
KSM2 301638Z 30008KT 33/03 A2992 RMK A01 T03290027  RH  015%=      5-min Rain = 0
KSM2 301639Z 29007KT 33/03 A2991 RMK A01 T03270028  RH  015%=      5-min Rain = 0
KSM2 301640Z 30011KT 33/03 A2992 RMK A01 T03280033  RH  016%=      5-min Rain = 0
KSM2 301641Z 31012KT 33/03 A2992 RMK A01 T03310033  RH  015%=      5-min Rain = 0
KSM2 301642Z 31014KT 33/03 A2992 RMK A01 T03320033  RH  015%=      5-min Rain = 0
KSM2 301643Z 32013KT 33/03 A2992 RMK A01 T03340031  RH  015%=      5-min Rain = 0
KSM2 301644Z 31014KT 33/03 A2992 RMK A01 T03330031  RH  015%=      5-min Rain = 0
KSM2 301645Z 33011KT 33/03 A2992 RMK A01 T03310030  RH  015%=      5-min Rain = 0
KSM2 301646Z 34011KT 33/03 A2992 RMK A01 T03320029  RH  015%=      5-min Rain = 0
KSM2 301647Z 32008KT 33/03 A2992 RMK A01 T03310030  RH  015%=      5-min Rain = 0
KSM2 301648Z 31010G15KT 33/03 A2992 RMK A01 T03310031  RH  015%=      5-min Rain = 0
KSM2 301649Z 31010KT 33/03 A2992 RMK A01 T03320030  RH  015%=      5-min Rain = 0
KSM2 301650Z 30011KT 33/03 A2992 RMK A01 T03320031  RH  015%=      5-min Rain = 0
KSM2 301651Z 30014KT 33/03 A2992 RMK A01 T03330029  RH  015%=      5-min Rain = 0
KSM2 301652Z 31015KT 34/03 A2992 RMK A01 T03350028  RH  014%=      5-min Rain = 0
KSM2 301653Z 31015KT 34/03 A2992 RMK A01 T03350027  RH  014%=      5-min Rain = 0
KSM2 301654Z 31012KT 33/03 A2992 RMK A01 T03340026  RH  014%=      5-min Rain = 0
KSM2 301655Z 31012KT 34/03 A2992 RMK A01 T03350027  RH  014%=      5-min Rain = 0
KSM2 301656Z 32010G15KT 33/02 A2991 RMK A01 T03320024  RH  014%=      5-min Rain = 0
KSM2 301657Z 30009KT 33/03 A2992 RMK A01 T03320028  RH  015%=      5-min Rain = 0
KSM2 301658Z 30012KT 34/03 A2992 RMK A01 T03350027  RH  014%=      5-min Rain = 0
KSM2 301659Z 28013KT 34/03 A2992 RMK A01 T03350030  RH  015%=      5-min Rain = 0
KSM2 301700Z 27012KT 34/03 A2992 RMK A01 T03370027  RH  014%=      5-min Rain = 0
KSM2 301701Z 27012KT 34/03 A2992 RMK A01 T03350028  RH  014%=      5-min Rain = 0
KSM2 301702Z 28011KT 33/03 A2992 RMK A01 T03340029  RH  015%=      5-min Rain = 0
KSM2 301703Z 28009KT 33/03 A2992 RMK A01 T03330026  RH  014%=      5-min Rain = 0
KSM2 301704Z 28008KT 33/03 A2992 RMK A01 T03310025  RH  014%=      5-min Rain = 0
KSM2 301705Z 28006KT 33/03 A2991 RMK A01 T03300026  RH  015%=      5-min Rain = 0
KSM2 301706Z 27006G12KT 33/03 A2991 RMK A01 T03280026  RH  015%=      5-min Rain = 0
KSM2 301707Z 24005KT 33/02 A2991 RMK A01 T03270022  RH  014%=      5-min Rain = 0
KSM2 301708Z 27003KT 33/03 A2991 RMK A01 T03250029  RH  015%=      5-min Rain = 0
KSM2 301709Z 29005KT 33/03 A2991 RMK A01 T03260027  RH  015%=      5-min Rain = 0
KSM2 301710Z 30006KT 33/03 A2991 RMK A01 T03280028  RH  015%=      5-min Rain = 0
KSM2 301711Z 28010G15KT 33/03 A2991 RMK A01 T03310028  RH  015%=      5-min Rain = 0
KSM2 301712Z 27012KT 34/04 A2991 RMK A01 T03350035  RH  015%=      5-min Rain = 0
KSM2 301713Z 29011KT 34/03 A2991 RMK A01 T03400031  RH  014%=      5-min Rain = 0
KSM2 301714Z 32012KT 34/03 A2991 RMK A01 T03410028  RH  014%=      5-min Rain = 0
KSM2 301715Z 33011KT 34/02 A2991 RMK A01 T03390024  RH  014%=      5-min Rain = 0
KSM2 301716Z 31010KT 34/03 A2991 RMK A01 T03370026  RH  014%=      5-min Rain = 0
KSM2 301717Z 30008KT 34/03 A2991 RMK A01 T03390030  RH  014%=      5-min Rain = 0
KSM2 301718Z 31012KT 34/03 A2991 RMK A01 T03440029  RH  014%=      5-min Rain = 0
KSM2 301719Z 31010KT 34/02 A2991 RMK A01 T03380022  RH  014%=      5-min Rain = 0
KSM2 301720Z 30008KT 33/02 A2991 RMK A01 T03330021  RH  014%=      5-min Rain = 0
KSM2 301721Z 31010KT 33/03 A2991 RMK A01 T03320026  RH  015%=      5-min Rain = 0
KSM2 301722Z 30008KT 34/02 A2991 RMK A01 T03360024  RH  014%=      5-min Rain = 0
KSM2 301723Z 31008KT 34/03 A2991 RMK A01 T03360026  RH  014%=      5-min Rain = 0
KSM2 301724Z 31006KT 34/02 A2991 RMK A01 T03360024  RH  014%=      5-min Rain = 0
KSM2 301725Z 29006KT 34/03 A2991 RMK A01 T03350028  RH  014%=      5-min Rain = 0
KSM2 301726Z 30004KT 34/03 A2991 RMK A01 T03350025  RH  014%=      5-min Rain = 0
KSM2 301727Z 27005KT 34/03 A2991 RMK A01 T03350030  RH  015%=      5-min Rain = 0
KSM2 301728Z 26006KT 34/03 A2991 RMK A01 T03370031  RH  015%=      5-min Rain = 0
KSM2 301729Z 28008G14KT 34/04 A2991 RMK A01 T03380038  RH  015%=      5-min Rain = 0
KSM2 301730Z 30009KT 34/03 A2991 RMK A01 T03430029  RH  014%=      5-min Rain = 0
KSM2 301731Z 30007KT 34/02 A2991 RMK A01 T03390024  RH  014%=      5-min Rain = 0
KSM2 301732Z 27010KT 34/03 A2991 RMK A01 T03390031  RH  014%=      5-min Rain = 0
KSM2 301733Z 30009KT 34/03 A2991 RMK A01 T03430033  RH  014%=      5-min Rain = 0
KSM2 301734Z 28013KT 35/03 A2991 RMK A01 T03480033  RH  014%=      5-min Rain = 0
KSM2 301735Z 28012KT 34/03 A2991 RMK A01 T03440025  RH  013%=      5-min Rain = 0
KSM2 301736Z 28010KT 34/02 A2991 RMK A01 T03390024  RH  014%=      5-min Rain = 0
KSM2 301737Z 27008KT 34/03 A2991 RMK A01 T03370027  RH  014%=      5-min Rain = 0
KSM2 301738Z 27007KT 34/03 A2991 RMK A01 T03370026  RH  014%=      5-min Rain = 0
KSM2 301739Z 22010KT 34/03 A2991 RMK A01 T03370033  RH  015%=      5-min Rain = 0
KSM2 301740Z 21012KT 34/04 A2991 RMK A01 T03370038  RH  015%=      5-min Rain = 0
KSM2 301741Z 21007KT 33/03 A2991 RMK A01 T03330026  RH  014%=      5-min Rain = 0
KSM2 301742Z 22005KT 33/04 A2991 RMK A01 T03320035  RH  015%=      5-min Rain = 0
KSM2 301743Z 22005KT 33/04 A2991 RMK A01 T03320037  RH  016%=      5-min Rain = 0
KSM2 301744Z 23006KT 33/04 A2991 RMK A01 T03340039  RH  016%=      5-min Rain = 0
KSM2 301745Z 26012G17KT 34/04 A2991 RMK A01 T03380039  RH  015%=      5-min Rain = 0
KSM2 301746Z 26014KT 34/04 A2991 RMK A01 T03440037  RH  015%=      5-min Rain = 0
KSM2 301747Z 25011KT 35/03 A2991 RMK A01 T03470031  RH  014%=      5-min Rain = 0
KSM2 301748Z 25008KT 34/03 A2991 RMK A01 T03410028  RH  014%=      5-min Rain = 0
KSM2 301749Z 27010KT 34/03 A2991 RMK A01 T03400033  RH  015%=      5-min Rain = 0
KSM2 301750Z 25006KT 34/03 A2991 RMK A01 T03410028  RH  014%=      5-min Rain = 0
KSM2 301751Z 27006KT 34/03 A2991 RMK A01 T03380029  RH  014%=      5-min Rain = 0
KSM2 301752Z 26006KT 34/03 A2991 RMK A01 T03360026  RH  014%=      5-min Rain = 0
KSM2 301753Z 25008KT 34/03 A2991 RMK A01 T03360028  RH  014%=      5-min Rain = 0
KSM2 301754Z 27003KT 34/03 A2991 RMK A01 T03360034  RH  015%=      5-min Rain = 0
KSM2 301755Z 28006KT 34/03 A2991 RMK A01 T03370033  RH  015%=      5-min Rain = 0
KSM2 301756Z 29007KT 34/03 A2991 RMK A01 T03410034  RH  015%=      5-min Rain = 0
KSM2 301757Z 29012KT 34/03 A2991 RMK A01 T03440030  RH  014%=      5-min Rain = 0
KSM2 301758Z 30010KT 34/03 A2991 RMK A01 T03420027  RH  014%=      5-min Rain = 0
KSM2 301759Z 30009G14KT 34/03 A2991 RMK A01 T03420031  RH  014%=      5-min Rain = 0
KSM2 301800Z 25013KT 35/04 A2991 RMK A01 T03470036  RH  014%=      5-min Rain = 0
KSM2 301801Z 26012KT 35/03 A2991 RMK A01 T03460034  RH  014%=      5-min Rain = 0
KSM2 301802Z 27010KT 35/03 A2991 RMK A01 T03450033  RH  014%=      5-min Rain = 0
KSM2 301803Z 26007KT 34/03 A2991 RMK A01 T03430034  RH  014%=      5-min Rain = 0
KSM2 301804Z 24007KT 34/03 A2991 RMK A01 T03430031  RH  014%=      5-min Rain = 0
KSM2 301805Z 25007KT 34/04 A2991 RMK A01 T03400038  RH  015%=      5-min Rain = 0
KSM2 301806Z 27009KT 34/04 A2991 RMK A01 T03410035  RH  015%=      5-min Rain = 0
KSM2 301807Z 27007KT 34/03 A2991 RMK A01 T03420029  RH  014%=      5-min Rain = 0
KSM2 301808Z 30005KT 34/02 A2991 RMK A01 T03380024  RH  014%=      5-min Rain = 0
KSM2 301809Z 25004KT 34/03 A2991 RMK A01 T03360025  RH  014%=      5-min Rain = 0
KSM2 301810Z 25005KT 34/03 A2991 RMK A01 T03350029  RH  015%=      5-min Rain = 0
KSM2 301811Z 25005KT 34/05 A2991 RMK A01 T03370049  RH  017%=      5-min Rain = 0
KSM2 301812Z 25008KT 34/04 A2991 RMK A01 T03440042  RH  015%=      5-min Rain = 0
KSM2 301813Z 23005KT 35/04 A2991 RMK A01 T03460042  RH  015%=      5-min Rain = 0
KSM2 301814Z 24006KT 34/04 A299 RMK A01 T03440042  RH  015%=      5-min Rain = 0
KSM2 301815Z 25005KT 34/04 A299 RMK A01 T03420036  RH  015%=      5-min Rain = 0
KSM2 301816Z 28008KT 34/03 A299 RMK A01 T03410034  RH  015%=      5-min Rain = 0
KSM2 301817Z 29010KT 34/04 A299 RMK A01 T03420035  RH  015%=      5-min Rain = 0
KSM2 301818Z 29007KT 35/03 A299 RMK A01 T03450029  RH  014%=      5-min Rain = 0
KSM2 301819Z 28008KT 34/03 A299 RMK A01 T03430032  RH  014%=      5-min Rain = 0
KSM2 301820Z 28007KT 34/03 A299 RMK A01 T03420031  RH  014%=      5-min Rain = 0
KSM2 301821Z 28008KT 34/04 A299 RMK A01 T03430035  RH  014%=      5-min Rain = 0
KSM2 301822Z 27008KT 35/03 A299 RMK A01 T03450031  RH  014%=      5-min Rain = 0
KSM2 301823Z 28006KT 34/03 A299 RMK A01 T03430030  RH  014%=      5-min Rain = 0
KSM2 301824Z 27009KT 34/04 A299 RMK A01 T03430037  RH  015%=      5-min Rain = 0
KSM2 301825Z 27008KT 35/04 A299 RMK A01 T03450035  RH  014%=      5-min Rain = 0
KSM2 301826Z 26009KT 35/04 A299 RMK A01 T03450036  RH  014%=      5-min Rain = 0
KSM2 301827Z 29014G19KT 35/04 A299 RMK A01 T03460035  RH  014%=      5-min Rain = 0
KSM2 301828Z 28011KT 35/03 A299 RMK A01 T03480033  RH  014%=      5-min Rain = 0
KSM2 301829Z 29009KT 35/03 A299 RMK A01 T03470033  RH  014%=      5-min Rain = 0
KSM2 301830Z 29008KT 35/03 A299 RMK A01 T03460032  RH  014%=      5-min Rain = 0
KSM2 301831Z 29009KT 35/03 A299 RMK A01 T03480033  RH  014%=      5-min Rain = 0
KSM2 301832Z 28008KT 35/03 A299 RMK A01 T03490034  RH  014%=      5-min Rain = 0
KSM2 301833Z 27008KT 35/04 A299 RMK A01 T03480035  RH  014%=      5-min Rain = 0
KSM2 301834Z 28008KT 35/04 A299 RMK A01 T03460036  RH  014%=      5-min Rain = 0
KSM2 301835Z 25009G15KT 35/04 A299 RMK A01 T03470043  RH  015%=      5-min Rain = 0
KSM2 301836Z 26009KT 35/04 A299 RMK A01 T03500037  RH  014%=      5-min Rain = 0
KSM2 301837Z 25006KT 35/03 A299 RMK A01 T03460034  RH  014%=      5-min Rain = 0
KSM2 301838Z 24013KT 35/04 A299 RMK A01 T03450040  RH  015%=      5-min Rain = 0
KSM2 301839Z 23013KT 35/04 A299 RMK A01 T03490042  RH  015%=      5-min Rain = 0
KSM2 301840Z 21013KT 35/04 A299 RMK A01 T03470042  RH  015%=      5-min Rain = 0
KSM2 301841Z 20012KT 35/04 A299 RMK A01 T03450043  RH  015%=      5-min Rain = 0
KSM2 301842Z 21009G16KT 34/04 A299 RMK A01 T03430043  RH  015%=      5-min Rain = 0
KSM2 301843Z 21014KT 34/05 A299 RMK A01 T03430047  RH  016%=      5-min Rain = 0
KSM2 301844Z 21010KT 35/05 A299 RMK A01 T03460046  RH  015%=      5-min Rain = 0
KSM2 301845Z 21012KT 35/05 A2989 RMK A01 T03460046  RH  015%=      5-min Rain = 0
KSM2 301846Z 21012KT 35/04 A299 RMK A01 T03450043  RH  015%=      5-min Rain = 0
KSM2 301847Z 22010KT 35/04 A299 RMK A01 T03450042  RH  015%=      5-min Rain = 0
KSM2 301848Z 23009KT 35/04 A299 RMK A01 T03450044  RH  015%=      5-min Rain = 0
KSM2 301849Z 23008KT 35/04 A299 RMK A01 T03450037  RH  015%=      5-min Rain = 0
KSM2 301850Z 25012G18KT 35/04 A299 RMK A01 T03450044  RH  015%=      5-min Rain = 0
KSM2 301851Z 26014KT 35/04 A2989 RMK A01 T03500041  RH  015%=      5-min Rain = 0
KSM2 301852Z 28012KT 35/04 A2989 RMK A01 T03540043  RH  014%=      5-min Rain = 0
KSM2 301853Z 28014KT 36/04 A2989 RMK A01 T03590040  RH  014%=      5-min Rain = 0
KSM2 301854Z 29013KT 36/04 A2989 RMK A01 T03570035  RH  013%=      5-min Rain = 0
KSM2 301855Z 29013KT 35/03 A2989 RMK A01 T03540034  RH  014%=      5-min Rain = 0
KSM2 301856Z 29011KT 35/03 A2989 RMK A01 T03520032  RH  014%=      5-min Rain = 0
KSM2 301857Z 29008KT 35/03 A2989 RMK A01 T03500033  RH  014%=      5-min Rain = 0
KSM2 301858Z 25007G12KT 35/04 A2989 RMK A01 T03480036  RH  014%=      5-min Rain = 0
KSM2 301859Z 26010G16KT 35/04 A2989 RMK A01 T03500042  RH  015%=      5-min Rain = 0
KSM2 301900Z 24006KT 36/05 A2989 RMK A01 T03560046  RH  015%=      5-min Rain = 0
KSM2 301901Z 24010G15KT 36/04 A2989 RMK A01 T03560044  RH  014%=      5-min Rain = 0
KSM2 301902Z 24010KT 35/04 A2989 RMK A01 T03540039  RH  014%=      5-min Rain = 0
KSM2 301903Z 24008KT 35/04 A2989 RMK A01 T03500042  RH  015%=      5-min Rain = 0
KSM2 301904Z 23009KT 35/05 A2989 RMK A01 T03520047  RH  015%=      5-min Rain = 0
KSM2 301905Z 25009KT 35/05 A2989 RMK A01 T03530048  RH  015%=      5-min Rain = 0
KSM2 301906Z 26011KT 36/05 A2989 RMK A01 T03590048  RH  015%=      5-min Rain = 0
KSM2 301907Z 24013KT 36/04 A2989 RMK A01 T03600044  RH  014%=      5-min Rain = 0
KSM2 301908Z 23010KT 36/04 A2989 RMK A01 T03550042  RH  014%=      5-min Rain = 0
KSM2 301909Z 23007KT 35/05 A2989 RMK A01 T03520045  RH  015%=      5-min Rain = 0
KSM2 301910Z 23008KT 35/05 A2989 RMK A01 T03520048  RH  015%=      5-min Rain = 0
KSM2 301911Z 26012KT 35/04 A2989 RMK A01 T03520042  RH  015%=      5-min Rain = 0
KSM2 301912Z 27011KT 36/05 A2989 RMK A01 T03550045  RH  015%=      5-min Rain = 0
KSM2 301913Z 24010KT 36/04 A2989 RMK A01 T03560043  RH  014%=      5-min Rain = 0
KSM2 301914Z 22010KT 35/05 A2989 RMK A01 T03530046  RH  015%=      5-min Rain = 0
KSM2 301915Z 21009KT 35/05 A2988 RMK A01 T03520051  RH  015%=      5-min Rain = 0
KSM2 301916Z 21010KT 35/05 A2988 RMK A01 T03530051  RH  015%=      5-min Rain = 0
KSM2 301917Z 25013KT 35/04 A2988 RMK A01 T03520044  RH  015%=      5-min Rain = 0
KSM2 301918Z 28012KT 35/04 A2988 RMK A01 T03540044  RH  015%=      5-min Rain = 0
KSM2 301919Z 27013KT 36/04 A2988 RMK A01 T03590044  RH  014%=      5-min Rain = 0
KSM2 301920Z 28011KT 36/04 A2988 RMK A01 T03580043  RH  014%=      5-min Rain = 0
KSM2 301921Z 29013KT 36/04 A2988 RMK A01 T03570041  RH  014%=      5-min Rain = 0
KSM2 301922Z 27013KT 36/04 A2988 RMK A01 T03590043  RH  014%=      5-min Rain = 0
KSM2 301923Z 28009KT 36/04 A2988 RMK A01 T03570042  RH  014%=      5-min Rain = 0
KSM2 301924Z 26009KT 36/04 A2988 RMK A01 T03580044  RH  014%=      5-min Rain = 0
KSM2 301925Z 27009KT 36/05 A2988 RMK A01 T03580047  RH  015%=      5-min Rain = 0
KSM2 301926Z 29008KT 36/04 A2988 RMK A01 T03580044  RH  014%=      5-min Rain = 0
KSM2 301927Z 26013KT 36/05 A2988 RMK A01 T03590047  RH  014%=      5-min Rain = 0
KSM2 301928Z 25011KT 36/05 A2988 RMK A01 T03600046  RH  014%=      5-min Rain = 0
KSM2 301929Z 27011KT 36/05 A2988 RMK A01 T03580045  RH  014%=      5-min Rain = 0
KSM2 301930Z 28011KT 36/04 A2988 RMK A01 T03570043  RH  014%=      5-min Rain = 0
KSM2 301931Z 25014KT 36/05 A2988 RMK A01 T03590051  RH  015%=      5-min Rain = 0
KSM2 301932Z 25015KT 36/05 A2988 RMK A01 T03630048  RH  014%=      5-min Rain = 0
KSM2 301933Z 26016G22KT 36/05 A2988 RMK A01 T03600047  RH  014%=      5-min Rain = 0
KSM2 301934Z 25018KT 36/05 A2987 RMK A01 T03600046  RH  014%=      5-min Rain = 0
KSM2 301935Z 26011KT 36/04 A2987 RMK A01 T03580044  RH  014%=      5-min Rain = 0
KSM2 301936Z 23014KT 36/05 A2987 RMK A01 T03570052  RH  015%=      5-min Rain = 0
KSM2 301937Z 23016KT 36/05 A2987 RMK A01 T03600051  RH  015%=      5-min Rain = 0
KSM2 301938Z 24017KT 36/05 A2987 RMK A01 T03590049  RH  015%=      5-min Rain = 0
KSM2 301939Z 25015KT 36/05 A2987 RMK A01 T03570046  RH  015%=      5-min Rain = 0
KSM2 301940Z 26014KT 36/05 A2987 RMK A01 T03590051  RH  015%=      5-min Rain = 0
KSM2 301941Z 26015G21KT 36/05 A2987 RMK A01 T03630046  RH  014%=      5-min Rain = 0
KSM2 301942Z 26016G22KT 36/04 A2987 RMK A01 T03580044  RH  014%=      5-min Rain = 0
KSM2 301943Z 25020KT 36/05 A2987 RMK A01 T03580049  RH  015%=      5-min Rain = 0
KSM2 301944Z 24018G23KT 36/05 A2987 RMK A01 T03600051  RH  015%=      5-min Rain = 0
KSM2 301945Z 23019KT 36/05 A2987 RMK A01 T03600050  RH  015%=      5-min Rain = 0
KSM2 301946Z 25014G19KT 36/05 A2987 RMK A01 T03580051  RH  015%=      5-min Rain = 0
KSM2 301947Z 25013G18KT 36/05 A2987 RMK A01 T03610051  RH  015%=      5-min Rain = 0
KSM2 301948Z 25018KT 36/05 A2987 RMK A01 T03620051  RH  015%=      5-min Rain = 0
KSM2 301949Z 24018KT 36/05 A2987 RMK A01 T03640050  RH  014%=      5-min Rain = 0
KSM2 301950Z 24019KT 36/05 A2987 RMK A01 T03600047  RH  014%=      5-min Rain = 0
KSM2 301951Z 25014G19KT 36/05 A2987 RMK A01 T03570047  RH  015%=      5-min Rain = 0
KSM2 301952Z 26009KT 36/05 A2987 RMK A01 T03560047  RH  015%=      5-min Rain = 0
KSM2 301953Z 24011KT 36/05 A2987 RMK A01 T03570049  RH  015%=      5-min Rain = 0
KSM2 301954Z 25014KT 36/05 A2987 RMK A01 T03570046  RH  014%=      5-min Rain = 0
KSM2 301955Z 24012KT 36/05 A2987 RMK A01 T03570048  RH  015%=      5-min Rain = 0
KSM2 301956Z 25010G15KT 36/05 A2987 RMK A01 T03570049  RH  015%=      5-min Rain = 0
KSM2 301957Z 26008G13KT 36/05 A2987 RMK A01 T03570047  RH  015%=      5-min Rain = 0
KSM2 301958Z 26011KT 36/05 A2987 RMK A01 T03580048  RH  015%=      5-min Rain = 0
KSM2 301959Z 24014KT 36/05 A2987 RMK A01 T03600051  RH  015%=      5-min Rain = 0
KSM2 302000Z 23009KT 36/05 A2987 RMK A01 T03600052  RH  015%=      5-min Rain = 0
KSM2 302001Z 23009KT 36/05 A2987 RMK A01 T03600054  RH  015%=      5-min Rain = 0
KSM2 302002Z 23012KT 36/05 A2987 RMK A01 T03590049  RH  015%=      5-min Rain = 0
KSM2 302003Z 23010KT 36/05 A2987 RMK A01 T03560048  RH  015%=      5-min Rain = 0
KSM2 302004Z 26009KT 36/05 A2986 RMK A01 T03550045  RH  015%=      5-min Rain = 0
KSM2 302005Z 25007KT 35/05 A2986 RMK A01 T03530046  RH  015%=      5-min Rain = 0
KSM2 302006Z 23006KT 36/05 A2986 RMK A01 T03550048  RH  015%=      5-min Rain = 0
KSM2 302007Z 25013G18KT 36/06 A2986 RMK A01 T03570059  RH  016%=      5-min Rain = 0
KSM2 302008Z 27013KT 36/05 A2986 RMK A01 T03630053  RH  015%=      5-min Rain = 0
KSM2 302009Z 26012KT 37/05 A2986 RMK A01 T03670050  RH  014%=      5-min Rain = 0
KSM2 302010Z 24010KT 37/05 A2986 RMK A01 T03680050  RH  014%=      5-min Rain = 0
KSM2 302011Z 23011KT 36/05 A2986 RMK A01 T03620047  RH  014%=      5-min Rain = 0
KSM2 302012Z 22011KT 36/05 A2986 RMK A01 T03600053  RH  015%=      5-min Rain = 0
KSM2 302013Z 19009KT 36/05 A2986 RMK A01 T03600052  RH  015%=      5-min Rain = 0
KSM2 302014Z 22006KT 36/06 A2986 RMK A01 T03560056  RH  016%=      5-min Rain = 0
KSM2 302015Z 21011KT 36/06 A2986 RMK A01 T03570057  RH  016%=      5-min Rain = 0
KSM2 302016Z 20012KT 36/06 A2986 RMK A01 T03590060  RH  016%=      5-min Rain = 0
KSM2 302017Z 21013KT 36/05 A2986 RMK A01 T03610054  RH  015%=      5-min Rain = 0
KSM2 302018Z 21012KT 36/05 A2986 RMK A01 T03580053  RH  015%=      5-min Rain = 0
KSM2 302019Z 24013KT 36/06 A2986 RMK A01 T03610060  RH  016%=      5-min Rain = 0
KSM2 302020Z 25013KT 36/05 A2986 RMK A01 T03640050  RH  014%=      5-min Rain = 0
KSM2 302021Z 23014KT 37/05 A2986 RMK A01 T03650053  RH  015%=      5-min Rain = 0
KSM2 302022Z 24012G18KT 37/06 A2986 RMK A01 T03660058  RH  015%=      5-min Rain = 0
KSM2 302023Z 26016KT 37/06 A2986 RMK A01 T03720055  RH  014%=      5-min Rain = 0
KSM2 302024Z 26014KT 37/05 A2986 RMK A01 T03720049  RH  014%=      5-min Rain = 0
KSM2 302025Z 28011KT 37/05 A2986 RMK A01 T03670048  RH  014%=      5-min Rain = 0
KSM2 302026Z 26014G19KT 37/05 A2986 RMK A01 T03680051  RH  014%=      5-min Rain = 0
KSM2 302027Z 25014KT 37/05 A2986 RMK A01 T03690049  RH  014%=      5-min Rain = 0
KSM2 302028Z 26013KT 37/05 A2986 RMK A01 T03650048  RH  014%=      5-min Rain = 0
KSM2 302029Z 25009KT 36/05 A2986 RMK A01 T03640050  RH  014%=      5-min Rain = 0
KSM2 302030Z 27013G18KT 37/05 A2986 RMK A01 T03650050  RH  014%=      5-min Rain = 0
KSM2 302031Z 25016G21KT 37/05 A2985 RMK A01 T03650050  RH  014%=      5-min Rain = 0
KSM2 302032Z 24016KT 37/05 A2986 RMK A01 T03680054  RH  014%=      5-min Rain = 0
KSM2 302033Z 25015KT 37/05 A2985 RMK A01 T03690054  RH  014%=      5-min Rain = 0
KSM2 302034Z 24018G23KT 37/05 A2985 RMK A01 T03700054  RH  014%=      5-min Rain = 0
KSM2 302035Z 24017G22KT 37/05 A2985 RMK A01 T03710054  RH  014%=      5-min Rain = 0
KSM2 302036Z 25013KT 37/05 A2986 RMK A01 T03720054  RH  014%=      5-min Rain = 0
KSM2 302037Z 24010KT 37/06 A2985 RMK A01 T03710055  RH  014%=      5-min Rain = 0
KSM2 302038Z 25015KT 37/05 A2985 RMK A01 T03720053  RH  014%=      5-min Rain = 0
KSM2 302039Z 25016G21KT 37/05 A2985 RMK A01 T03680053  RH  014%=      5-min Rain = 0
KSM2 302040Z 27016KT 37/05 A2985 RMK A01 T03690049  RH  014%=      5-min Rain = 0
KSM2 302041Z 26010KT 37/05 A2985 RMK A01 T03670050  RH  014%=      5-min Rain = 0
KSM2 302042Z 26011KT 37/05 A2985 RMK A01 T03700054  RH  014%=      5-min Rain = 0
KSM2 302043Z 27010KT 37/05 A2985 RMK A01 T03660047  RH  014%=      5-min Rain = 0
KSM2 302044Z 26009KT 36/05 A2985 RMK A01 T03640051  RH  014%=      5-min Rain = 0
KSM2 302045Z 28008KT 37/05 A2985 RMK A01 T03670051  RH  014%=      5-min Rain = 0
KSM2 302046Z 27009G14KT 37/05 A2985 RMK A01 T03680053  RH  014%=      5-min Rain = 0
KSM2 302047Z 25015KT 37/06 A2985 RMK A01 T03700057  RH  015%=      5-min Rain = 0
KSM2 302048Z 26018KT 38/06 A2985 RMK A01 T03760058  RH  014%=      5-min Rain = 0
KSM2 302049Z 25017KT 38/06 A2985 RMK A01 T03750055  RH  014%=      5-min Rain = 0
KSM2 302050Z 25018KT 37/06 A2985 RMK A01 T03730055  RH  014%=      5-min Rain = 0
KSM2 302051Z 26019KT 37/05 A2985 RMK A01 T03730053  RH  014%=      5-min Rain = 0
KSM2 302052Z 25016KT 37/05 A2985 RMK A01 T03690051  RH  014%=      5-min Rain = 0
KSM2 302053Z 24016G22KT 37/06 A2985 RMK A01 T03690057  RH  015%=      5-min Rain = 0
KSM2 302054Z 25022KT 37/05 A2985 RMK A01 T03710054  RH  014%=      5-min Rain = 0
KSM2 302055Z 25016KT 37/05 A2985 RMK A01 T03700050  RH  014%=      5-min Rain = 0
KSM2 302056Z 25015KT 36/05 A2985 RMK A01 T03640048  RH  014%=      5-min Rain = 0
KSM2 302057Z 26011KT 36/05 A2985 RMK A01 T03600047  RH  014%=      5-min Rain = 0
KSM2 302058Z 25011KT 36/05 A2984 RMK A01 T03610050  RH  015%=      5-min Rain = 0
KSM2 302059Z 24011KT 36/05 A2985 RMK A01 T03620051  RH  015%=      5-min Rain = 0
KSM2 302100Z 22012KT 36/06 A2985 RMK A01 T03630055  RH  015%=      5-min Rain = 0
KSM2 302101Z 22014KT 36/06 A2985 RMK A01 T03640062  RH  016%=      5-min Rain = 0
KSM2 302102Z 24019KT 37/06 A2985 RMK A01 T03680059  RH  015%=      5-min Rain = 0
KSM2 302103Z 24014KT 37/05 A2985 RMK A01 T03700052  RH  014%=      5-min Rain = 0
KSM2 302104Z 24014G20KT 37/05 A2985 RMK A01 T03650050  RH  014%=      5-min Rain = 0
KSM2 302105Z 23017KT 37/05 A2984 RMK A01 T03650054  RH  015%=      5-min Rain = 0
KSM2 302106Z 21014G19KT 37/06 A2984 RMK A01 T03660055  RH  015%=      5-min Rain = 0
KSM2 302107Z 21015KT 36/06 A2984 RMK A01 T03630056  RH  015%=      5-min Rain = 0
KSM2 302108Z 22015KT 36/06 A2984 RMK A01 T03630059  RH  015%=      5-min Rain = 0
KSM2 302109Z 21017KT 37/06 A2984 RMK A01 T03660060  RH  015%=      5-min Rain = 0
KSM2 302110Z 22014KT 37/06 A2984 RMK A01 T03650057  RH  015%=      5-min Rain = 0
KSM2 302111Z 21014KT 37/06 A2984 RMK A01 T03650062  RH  016%=      5-min Rain = 0
KSM2 302112Z 22017KT 36/05 A2984 RMK A01 T03630054  RH  015%=      5-min Rain = 0
KSM2 302113Z 22016KT 36/06 A2984 RMK A01 T03620056  RH  015%=      5-min Rain = 0
KSM2 302114Z 23012KT 36/06 A2984 RMK A01 T03610056  RH  015%=      5-min Rain = 0
KSM2 302115Z 23008KT 36/05 A2984 RMK A01 T03600053  RH  015%=      5-min Rain = 0
KSM2 302116Z 22009KT 36/07 A2984 RMK A01 T03620065  RH  016%=      5-min Rain = 0
KSM2 302117Z 22011KT 37/06 A2984 RMK A01 T03660057  RH  015%=      5-min Rain = 0
KSM2 302118Z 20014KT 37/06 A2984 RMK A01 T03660059  RH  015%=      5-min Rain = 0
KSM2 302119Z 23018KT 37/06 A2984 RMK A01 T03680062  RH  015%=      5-min Rain = 0
KSM2 302120Z 25017KT 37/06 A2984 RMK A01 T03700057  RH  015%=      5-min Rain = 0
KSM2 302121Z 25015KT 37/05 A2984 RMK A01 T03700052  RH  014%=      5-min Rain = 0
KSM2 302122Z 25012KT 37/05 A2984 RMK A01 T03680052  RH  014%=      5-min Rain = 0
KSM2 302123Z 26011KT 37/06 A2984 RMK A01 T03680056  RH  015%=      5-min Rain = 0
KSM2 302124Z 27011KT 37/05 A2984 RMK A01 T03720054  RH  014%=      5-min Rain = 0
KSM2 302125Z 26011KT 37/05 A2984 RMK A01 T03720052  RH  014%=      5-min Rain = 0
KSM2 302126Z 25012KT 37/06 A2984 RMK A01 T03720055  RH  014%=      5-min Rain = 0
KSM2 302127Z 25013KT 37/05 A2984 RMK A01 T03710052  RH  014%=      5-min Rain = 0
KSM2 302128Z 25014KT 37/06 A2984 RMK A01 T03730059  RH  015%=      5-min Rain = 0
KSM2 302129Z 25017KT 38/06 A2984 RMK A01 T03780056  RH  014%=      5-min Rain = 0
KSM2 302130Z 25015KT 38/06 A2983 RMK A01 T03770055  RH  014%=      5-min Rain = 0
KSM2 302131Z 25014KT 37/05 A2983 RMK A01 T03730049  RH  014%=      5-min Rain = 0
KSM2 302132Z 24012KT 37/06 A2983 RMK A01 T03700056  RH  014%=      5-min Rain = 0
KSM2 302133Z 24011KT 37/06 A2983 RMK A01 T03720055  RH  014%=      5-min Rain = 0
KSM2 302134Z 24013KT 37/05 A2983 RMK A01 T03690054  RH  014%=      5-min Rain = 0
KSM2 302135Z 23009KT 37/05 A2983 RMK A01 T03670050  RH  014%=      5-min Rain = 0
KSM2 302136Z 24015KT 37/06 A2983 RMK A01 T03680059  RH  015%=      5-min Rain = 0
KSM2 302137Z 24017KT 37/06 A2983 RMK A01 T03720055  RH  014%=      5-min Rain = 0
KSM2 302138Z 23014KT 37/05 A2983 RMK A01 T03690051  RH  014%=      5-min Rain = 0
KSM2 302139Z 23014KT 37/05 A2983 RMK A01 T03670052  RH  014%=      5-min Rain = 0
KSM2 302140Z 23013KT 37/05 A2983 RMK A01 T03670053  RH  014%=      5-min Rain = 0
KSM2 302141Z 23017G22KT 37/06 A2983 RMK A01 T03680058  RH  015%=      5-min Rain = 0
KSM2 302142Z 22019KT 37/06 A2983 RMK A01 T03710057  RH  015%=      5-min Rain = 0
KSM2 302143Z 22014KT 37/06 A2983 RMK A01 T03710059  RH  015%=      5-min Rain = 0
KSM2 302144Z 23016KT 37/05 A2983 RMK A01 T03680054  RH  014%=      5-min Rain = 0
KSM2 302145Z 23016KT 37/06 A2983 RMK A01 T03670055  RH  015%=      5-min Rain = 0
KSM2 302146Z 24015KT 37/06 A2983 RMK A01 T03680055  RH  014%=      5-min Rain = 0
KSM2 302147Z 25019KT 37/06 A2982 RMK A01 T03700055  RH  014%=      5-min Rain = 0
KSM2 302148Z 26020KT 37/05 A2982 RMK A01 T03730054  RH  014%=      5-min Rain = 0
KSM2 302149Z 25018KT 37/06 A2983 RMK A01 T03720055  RH  014%=      5-min Rain = 0
KSM2 302150Z 26015KT 37/05 A2983 RMK A01 T03720054  RH  014%=      5-min Rain = 0
KSM2 302151Z 26012KT 37/06 A2983 RMK A01 T03730057  RH  014%=      5-min Rain = 0
KSM2 302152Z 26012KT 38/06 A2982 RMK A01 T03760055  RH  014%=      5-min Rain = 0
KSM2 302153Z 27012KT 37/05 A2982 RMK A01 T03720052  RH  014%=      5-min Rain = 0
KSM2 302154Z 26013KT 37/06 A2982 RMK A01 T03720055  RH  014%=      5-min Rain = 0
KSM2 302155Z 25011KT 37/06 A2982 RMK A01 T03720055  RH  014%=      5-min Rain = 0
KSM2 302156Z 25010KT 37/05 A2982 RMK A01 T03700054  RH  014%=      5-min Rain = 0
KSM2 302157Z 27009KT 37/05 A2982 RMK A01 T03690053  RH  014%=      5-min Rain = 0
KSM2 302158Z 27009KT 37/05 A2982 RMK A01 T03700052  RH  014%=      5-min Rain = 0
KSM2 302159Z 27010KT 37/05 A2982 RMK A01 T03710054  RH  014%=      5-min Rain = 0
KSM2 302200Z 25013G19KT 37/06 A2982 RMK A01 T03730055  RH  014%=      5-min Rain = 0
KSM2 302201Z 25017G23KT 37/06 A2982 RMK A01 T03740061  RH  015%=      5-min Rain = 0
KSM2 302202Z 24019KT 38/06 A2982 RMK A01 T03760058  RH  014%=      5-min Rain = 0
KSM2 302203Z 24015KT 37/06 A2982 RMK A01 T03740060  RH  015%=      5-min Rain = 0
KSM2 302204Z 21014KT 38/07 A2982 RMK A01 T03770066  RH  015%=      5-min Rain = 0
KSM2 302205Z 22011KT 37/07 A2982 RMK A01 T03730065  RH  015%=      5-min Rain = 0
KSM2 302206Z 23013KT 37/06 A2982 RMK A01 T03720063  RH  015%=      5-min Rain = 0
KSM2 302207Z 23014KT 37/06 A2982 RMK A01 T03720064  RH  015%=      5-min Rain = 0
KSM2 302208Z 24012KT 37/06 A2982 RMK A01 T03730060  RH  015%=      5-min Rain = 0
KSM2 302209Z 24012KT 37/06 A2982 RMK A01 T03710058  RH  015%=      5-min Rain = 0
KSM2 302210Z 26012KT 37/06 A2982 RMK A01 T03700058  RH  015%=      5-min Rain = 0
KSM2 302211Z 27010KT 37/05 A2982 RMK A01 T03700054  RH  014%=      5-min Rain = 0
KSM2 302212Z 26010KT 37/06 A2982 RMK A01 T03690055  RH  015%=      5-min Rain = 0
KSM2 302213Z 25009G16KT 37/06 A2982 RMK A01 T03690056  RH  015%=      5-min Rain = 0
KSM2 302214Z 25017G22KT 37/06 A2982 RMK A01 T03720059  RH  015%=      5-min Rain = 0
KSM2 302215Z 25016G22KT 37/06 A2982 RMK A01 T03730055  RH  014%=      5-min Rain = 0
KSM2 302216Z 23019G25KT 37/06 A2982 RMK A01 T03720058  RH  015%=      5-min Rain = 0
KSM2 302217Z 23018G23KT 37/06 A2982 RMK A01 T03710059  RH  015%=      5-min Rain = 0
KSM2 302218Z 21014G19KT 37/06 A2982 RMK A01 T03690063  RH  015%=      5-min Rain = 0
KSM2 302219Z 22013KT 37/06 A2982 RMK A01 T03690063  RH  015%=      5-min Rain = 0
KSM2 302220Z 24014G20KT 37/06 A2982 RMK A01 T03690061  RH  015%=      5-min Rain = 0
KSM2 302221Z 25016KT 37/06 A2982 RMK A01 T03720055  RH  014%=      5-min Rain = 0
KSM2 302222Z 24013G19KT 37/05 A2982 RMK A01 T03720054  RH  014%=      5-min Rain = 0
KSM2 302223Z 24021KT 37/05 A2981 RMK A01 T03720054  RH  014%=      5-min Rain = 0
KSM2 302224Z 24021KT 37/05 A2981 RMK A01 T03710052  RH  014%=      5-min Rain = 0
KSM2 302225Z 24019G24KT 37/05 A2981 RMK A01 T03710054  RH  014%=      5-min Rain = 0
KSM2 302226Z 24017KT 37/05 A2981 RMK A01 T03720053  RH  014%=      5-min Rain = 0
KSM2 302227Z 25017KT 37/06 A2981 RMK A01 T03720056  RH  014%=      5-min Rain = 0
KSM2 302228Z 26016KT 37/05 A2981 RMK A01 T03730052  RH  014%=      5-min Rain = 0
KSM2 302229Z 25015KT 37/05 A2981 RMK A01 T03710049  RH  014%=      5-min Rain = 0
KSM2 302230Z 27012KT 37/05 A2981 RMK A01 T03680047  RH  014%=      5-min Rain = 0
KSM2 302231Z 28009KT 37/05 A2981 RMK A01 T03670050  RH  014%=      5-min Rain = 0
KSM2 302232Z 25014G21KT 37/05 A2981 RMK A01 T03690054  RH  014%=      5-min Rain = 0
KSM2 302233Z 24016KT 37/06 A2981 RMK A01 T03710056  RH  014%=      5-min Rain = 0
KSM2 302234Z 24012KT 37/05 A2981 RMK A01 T03690054  RH  014%=      5-min Rain = 0
KSM2 302235Z 24016KT 37/06 A2981 RMK A01 T03670057  RH  015%=      5-min Rain = 0
KSM2 302236Z 23012KT 36/06 A2981 RMK A01 T03640055  RH  015%=      5-min Rain = 0
KSM2 302237Z 22010KT 36/06 A2981 RMK A01 T03630058  RH  015%=      5-min Rain = 0
KSM2 302238Z 22014KT 36/06 A2981 RMK A01 T03640062  RH  016%=      5-min Rain = 0
KSM2 302239Z 22018G23KT 37/07 A2981 RMK A01 T03680067  RH  016%=      5-min Rain = 0
KSM2 302240Z 21017KT 37/06 A2981 RMK A01 T03690064  RH  015%=      5-min Rain = 0
KSM2 302241Z 22013KT 37/06 A2981 RMK A01 T03670064  RH  016%=      5-min Rain = 0
KSM2 302242Z 21012KT 37/07 A2981 RMK A01 T03660065  RH  016%=      5-min Rain = 0
KSM2 302243Z 22013KT 36/06 A2981 RMK A01 T03630062  RH  016%=      5-min Rain = 0
KSM2 302244Z 21015KT 36/06 A2981 RMK A01 T03610063  RH  016%=      5-min Rain = 0
KSM2 302245Z 22012KT 36/07 A2981 RMK A01 T03620067  RH  016%=      5-min Rain = 0
KSM2 302246Z 22013G18KT 37/07 A2981 RMK A01 T03660068  RH  016%=      5-min Rain = 0
KSM2 302247Z 22014KT 37/07 A2981 RMK A01 T03670065  RH  016%=      5-min Rain = 0
KSM2 302248Z 21012KT 37/07 A298 RMK A01 T03660066  RH  016%=      5-min Rain = 0
KSM2 302249Z 20014KT 37/07 A298 RMK A01 T03660067  RH  016%=      5-min Rain = 0
KSM2 302250Z 22013KT 37/06 A298 RMK A01 T03660063  RH  016%=      5-min Rain = 0
KSM2 302251Z 22012KT 37/06 A298 RMK A01 T03660064  RH  016%=      5-min Rain = 0
KSM2 302252Z 23013KT 37/06 A298 RMK A01 T03660064  RH  016%=      5-min Rain = 0
KSM2 302253Z 22015KT 37/06 A298 RMK A01 T03670063  RH  015%=      5-min Rain = 0
KSM2 302254Z 23012KT 37/07 A298 RMK A01 T03690066  RH  016%=      5-min Rain = 0
KSM2 302255Z 22014KT 37/06 A298 RMK A01 T03700064  RH  015%=      5-min Rain = 0
KSM2 302256Z 23012KT 37/06 A298 RMK A01 T03680064  RH  015%=      5-min Rain = 0
KSM2 302257Z 22016KT 37/07 A298 RMK A01 T03670065  RH  016%=      5-min Rain = 0
KSM2 302258Z 21015KT 37/06 A298 RMK A01 T03660063  RH  015%=      5-min Rain = 0
KSM2 302259Z 23012KT 36/06 A2981 RMK A01 T03640064  RH  016%=      5-min Rain = 0
KSM2 302300Z 22012KT 37/07 A2981 RMK A01 T03650066  RH  016%=      5-min Rain = 0
KSM2 302301Z 21014KT 37/07 A298 RMK A01 T03680067  RH  016%=      5-min Rain = 0
KSM2 302302Z 22013KT 37/07 A298 RMK A01 T03670068  RH  016%=      5-min Rain = 0
KSM2 302303Z 24009KT 37/07 A298 RMK A01 T03670068  RH  016%=      5-min Rain = 0
KSM2 302304Z 24010KT 37/07 A298 RMK A01 T03690065  RH  016%=      5-min Rain = 0
KSM2 302305Z 25016KT 37/07 A298 RMK A01 T03710066  RH  015%=      5-min Rain = 0
KSM2 302306Z 22018KT 37/07 A298 RMK A01 T03710065  RH  015%=      5-min Rain = 0
KSM2 302307Z 21016KT 37/07 A298 RMK A01 T03670065  RH  016%=      5-min Rain = 0
KSM2 302308Z 20014KT 36/06 A298 RMK A01 T03630063  RH  016%=      5-min Rain = 0
KSM2 302309Z 19010KT 36/06 A298 RMK A01 T03610063  RH  016%=      5-min Rain = 0
KSM2 302310Z 21009KT 36/06 A298 RMK A01 T03590063  RH  016%=      5-min Rain = 0
KSM2 302311Z 22011KT 36/06 A298 RMK A01 T03580063  RH  016%=      5-min Rain = 0
KSM2 302312Z 24012KT 36/06 A298 RMK A01 T03590062  RH  016%=      5-min Rain = 0
KSM2 302313Z 25009KT 36/06 A298 RMK A01 T03620062  RH  016%=      5-min Rain = 0
KSM2 302314Z 25007KT 37/06 A298 RMK A01 T03650064  RH  016%=      5-min Rain = 0
KSM2 302315Z 25006KT 37/06 A298 RMK A01 T03670063  RH  015%=      5-min Rain = 0
KSM2 302316Z 20006KT 37/07 A298 RMK A01 T03680066  RH  016%=      5-min Rain = 0
KSM2 302317Z 21006KT 37/07 A298 RMK A01 T03670068  RH  016%=      5-min Rain = 0
KSM2 302318Z 23006KT 37/07 A298 RMK A01 T03660068  RH  016%=      5-min Rain = 0
KSM2 302319Z 23009KT 37/06 A298 RMK A01 T03660063  RH  015%=      5-min Rain = 0
KSM2 302320Z 23014KT 37/07 A298 RMK A01 T03680066  RH  016%=      5-min Rain = 0
KSM2 302321Z 22018G23KT 37/06 A298 RMK A01 T03710062  RH  015%=      5-min Rain = 0
KSM2 302322Z 23019KT 37/06 A298 RMK A01 T03710061  RH  015%=      5-min Rain = 0
KSM2 302323Z 22018KT 37/06 A298 RMK A01 T03700064  RH  015%=      5-min Rain = 0
KSM2 302324Z 22017KT 37/06 A298 RMK A01 T03680062  RH  015%=      5-min Rain = 0
KSM2 302325Z 22015KT 37/06 A298 RMK A01 T03660061  RH  015%=      5-min Rain = 0
KSM2 302326Z 22013KT 37/06 A298 RMK A01 T03670061  RH  015%=      5-min Rain = 0
KSM2 302327Z 24013KT 37/07 A298 RMK A01 T03670065  RH  016%=      5-min Rain = 0
KSM2 302328Z 24013KT 37/06 A298 RMK A01 T03690059  RH  015%=      5-min Rain = 0
KSM2 302329Z 24010KT 37/06 A298 RMK A01 T03680059  RH  015%=      5-min Rain = 0
KSM2 302330Z 23008KT 37/06 A298 RMK A01 T03680058  RH  015%=      5-min Rain = 0
KSM2 302331Z 22009KT 37/06 A298 RMK A01 T03680063  RH  015%=      5-min Rain = 0
KSM2 302332Z 23007KT 37/06 A298 RMK A01 T03660063  RH  015%=      5-min Rain = 0
KSM2 302333Z 23009KT 37/06 A298 RMK A01 T03670063  RH  015%=      5-min Rain = 0
KSM2 302334Z 25007KT 37/07 A298 RMK A01 T03670066  RH  016%=      5-min Rain = 0
KSM2 302335Z 26009KT 37/06 A298 RMK A01 T03690060  RH  015%=      5-min Rain = 0
KSM2 302336Z 23008KT 37/06 A298 RMK A01 T03680064  RH  015%=      5-min Rain = 0
KSM2 302337Z 24009KT 37/07 A298 RMK A01 T03680065  RH  016%=      5-min Rain = 0
KSM2 302338Z 25011KT 37/06 A298 RMK A01 T03690063  RH  015%=      5-min Rain = 0
KSM2 302339Z 23016KT 37/06 A298 RMK A01 T03710063  RH  015%=      5-min Rain = 0
KSM2 302340Z 23014KT 37/06 A298 RMK A01 T03720058  RH  015%=      5-min Rain = 0
KSM2 302341Z 24015KT 37/06 A298 RMK A01 T03700056  RH  014%=      5-min Rain = 0
KSM2 302342Z 23015KT 37/06 A298 RMK A01 T03680055  RH  014%=      5-min Rain = 0
KSM2 302343Z 22011KT 37/06 A298 RMK A01 T03680059  RH  015%=      5-min Rain = 0
KSM2 302344Z 24011KT 37/06 A298 RMK A01 T03680057  RH  015%=      5-min Rain = 0
KSM2 302345Z 25011KT 37/06 A298 RMK A01 T03680055  RH  015%=      5-min Rain = 0
KSM2 302346Z 25009KT 37/06 A298 RMK A01 T03680055  RH  015%=      5-min Rain = 0
KSM2 302347Z 25009KT 37/06 A298 RMK A01 T03690059  RH  015%=      5-min Rain = 0
KSM2 302348Z 24011KT 37/06 A298 RMK A01 T03710056  RH  014%=      5-min Rain = 0
KSM2 302349Z 24011KT 37/06 A298 RMK A01 T03690056  RH  015%=      5-min Rain = 0
KSM2 302350Z 22015KT 37/06 A298 RMK A01 T03680057  RH  015%=      5-min Rain = 0
KSM2 302351Z 22014KT 37/06 A298 RMK A01 T03680057  RH  015%=      5-min Rain = 0
KSM2 302352Z 22015KT 37/06 A298 RMK A01 T03670057  RH  015%=      5-min Rain = 0
KSM2 302353Z 22014G19KT 37/06 A298 RMK A01 T03660057  RH  015%=      5-min Rain = 0
KSM2 302354Z 22015KT 37/06 A298 RMK A01 T03680058  RH  015%=      5-min Rain = 0
KSM2 302355Z 21013KT 37/06 A298 RMK A01 T03680059  RH  015%=      5-min Rain = 0
KSM2 302356Z 23015KT 37/06 A298 RMK A01 T03680056  RH  015%=      5-min Rain = 0
KSM2 302357Z 23016KT 37/06 A298 RMK A01 T03680055  RH  015%=      5-min Rain = 0
KSM2 302358Z 24012KT 37/05 A298 RMK A01 T03670053  RH  014%=      5-min Rain = 0
KSM2 302359Z 25013KT 37/06 A298 RMK A01 T03660055  RH  015%=      5-min Rain = 0
KSM2 010000Z 25013KT 37/06 A298 RMK A01 T03660055  RH  015%=      5-min Rain = 0
KSM2 010001Z 26011KT 37/06 A298 RMK A01 T03670055  RH  015%=      5-min Rain = 0
KSM2 010002Z 26012KT 37/05 A298 RMK A01 T03680052  RH  014%=      5-min Rain = 0
KSM2 010003Z 25012KT 37/06 A298 RMK A01 T03680055  RH  014%=      5-min Rain = 0
KSM2 010004Z 25010KT 37/05 A298 RMK A01 T03690054  RH  014%=      5-min Rain = 0
KSM2 010005Z 22011KT 37/06 A298 RMK A01 T03690061  RH  015%=      5-min Rain = 0
KSM2 010006Z 22016KT 37/06 A298 RMK A01 T03690057  RH  015%=      5-min Rain = 0
KSM2 010007Z 22017KT 37/05 A298 RMK A01 T03670051  RH  014%=      5-min Rain = 0
KSM2 010008Z 21015KT 36/05 A298 RMK A01 T03640050  RH  014%=      5-min Rain = 0
KSM2 010009Z 22015KT 36/05 A298 RMK A01 T03630052  RH  015%=      5-min Rain = 0
KSM2 010010Z 24012KT 36/05 A298 RMK A01 T03640052  RH  015%=      5-min Rain = 0
KSM2 010011Z 24011KT 37/05 A298 RMK A01 T03650054  RH  015%=      5-min Rain = 0
KSM2 010012Z 23012KT 37/05 A298 RMK A01 T03670052  RH  014%=      5-min Rain = 0
KSM2 010013Z 21017KT 37/05 A298 RMK A01 T03660051  RH  014%=      5-min Rain = 0
KSM2 010014Z 22017KT 37/05 A298 RMK A01 T03650048  RH  014%=      5-min Rain = 0
KSM2 010015Z 25013KT 37/05 A298 RMK A01 T03650049  RH  014%=      5-min Rain = 0
KSM2 010016Z 24013KT 37/05 A298 RMK A01 T03660053  RH  014%=      5-min Rain = 0
KSM2 010017Z 24014KT 37/05 A298 RMK A01 T03660047  RH  014%=      5-min Rain = 0
KSM2 010018Z 23013KT 37/05 A298 RMK A01 T03660049  RH  014%=      5-min Rain = 0
KSM2 010019Z 23013KT 37/05 A298 RMK A01 T03660047  RH  014%=      5-min Rain = 0
KSM2 010020Z 23011KT 37/05 A298 RMK A01 T03660047  RH  014%=      5-min Rain = 0
KSM2 010021Z 24011KT 37/05 A298 RMK A01 T03650045  RH  014%=      5-min Rain = 0
KSM2 010022Z 25010KT 37/05 A298 RMK A01 T03650046  RH  014%=      5-min Rain = 0
KSM2 010023Z 23012KT 37/05 A298 RMK A01 T03650047  RH  014%=      5-min Rain = 0
KSM2 010024Z 23012KT 37/05 A298 RMK A01 T03650047  RH  014%=      5-min Rain = 0
KSM2 010025Z 23015KT 37/05 A2981 RMK A01 T03660048  RH  014%=      5-min Rain = 0
KSM2 010026Z 23015KT 37/04 A2981 RMK A01 T03650043  RH  014%=      5-min Rain = 0
KSM2 010027Z 23013KT 36/05 A2981 RMK A01 T03640046  RH  014%=      5-min Rain = 0
KSM2 010028Z 23015KT 36/05 A2981 RMK A01 T03640046  RH  014%=      5-min Rain = 0
KSM2 010029Z 24013KT 36/04 A2981 RMK A01 T03640044  RH  014%=      5-min Rain = 0
KSM2 010030Z 24013KT 36/04 A2981 RMK A01 T03640042  RH  014%=      5-min Rain = 0
KSM2 010031Z 24012KT 36/04 A2981 RMK A01 T03640043  RH  014%=      5-min Rain = 0
KSM2 010032Z 24011KT 36/04 A2981 RMK A01 T03640044  RH  014%=      5-min Rain = 0
KSM2 010033Z 23010KT 36/04 A2981 RMK A01 T03640043  RH  014%=      5-min Rain = 0
KSM2 010034Z 23011KT 36/04 A2981 RMK A01 T03640044  RH  014%=      5-min Rain = 0
KSM2 010035Z 23011KT 36/04 A2981 RMK A01 T03640044  RH  014%=      5-min Rain = 0
KSM2 010036Z 24012KT 36/04 A2981 RMK A01 T03630043  RH  014%=      5-min Rain = 0
KSM2 010037Z 23010KT 36/04 A2981 RMK A01 T03630043  RH  014%=      5-min Rain = 0
KSM2 010038Z 22011KT 36/05 A2981 RMK A01 T03630051  RH  015%=      5-min Rain = 0
KSM2 010039Z 23013KT 36/05 A2981 RMK A01 T03630048  RH  014%=      5-min Rain = 0
KSM2 010040Z 21011KT 36/05 A2981 RMK A01 T03620048  RH  014%=      5-min Rain = 0
KSM2 010041Z 22010KT 36/05 A2981 RMK A01 T03610047  RH  014%=      5-min Rain = 0
KSM2 010042Z 22011G16KT 36/05 A2981 RMK A01 T03600047  RH  014%=      5-min Rain = 0
KSM2 010043Z 22011G16KT 36/05 A2981 RMK A01 T03600045  RH  014%=      5-min Rain = 0
KSM2 010044Z 23013G18KT 36/05 A2981 RMK A01 T03610048  RH  014%=      5-min Rain = 0
KSM2 010045Z 23016KT 36/04 A2981 RMK A01 T03610042  RH  014%=      5-min Rain = 0
KSM2 010046Z 23014KT 36/04 A2981 RMK A01 T03610041  RH  014%=      5-min Rain = 0
KSM2 010047Z 23012KT 36/05 A2981 RMK A01 T03610045  RH  014%=      5-min Rain = 0
KSM2 010048Z 23013KT 36/05 A2981 RMK A01 T03610045  RH  014%=      5-min Rain = 0
KSM2 010049Z 23012KT 36/04 A2981 RMK A01 T03610044  RH  014%=      5-min Rain = 0
KSM2 010050Z 22014KT 36/05 A2981 RMK A01 T03600046  RH  014%=      5-min Rain = 0
KSM2 010051Z 22014KT 36/04 A2981 RMK A01 T03600043  RH  014%=      5-min Rain = 0
KSM2 010052Z 22013KT 36/04 A2981 RMK A01 T03600043  RH  014%=      5-min Rain = 0
KSM2 010053Z 22013KT 36/04 A2981 RMK A01 T03590044  RH  014%=      5-min Rain = 0
KSM2 010054Z 22012KT 36/05 A2981 RMK A01 T03580045  RH  014%=      5-min Rain = 0
KSM2 010055Z 22012KT 36/04 A2981 RMK A01 T03580044  RH  014%=      5-min Rain = 0
KSM2 010056Z 21011G16KT 36/05 A2981 RMK A01 T03580045  RH  014%=      5-min Rain = 0
KSM2 010057Z 21015KT 36/04 A2981 RMK A01 T03570043  RH  014%=      5-min Rain = 0
KSM2 010058Z 21014KT 36/04 A2981 RMK A01 T03570040  RH  014%=      5-min Rain = 0
KSM2 010059Z 21013KT 36/04 A2981 RMK A01 T03560040  RH  014%=      5-min Rain = 0
KSM2 010100Z 21011KT 36/04 A2981 RMK A01 T03560041  RH  014%=      5-min Rain = 0
KSM2 010101Z 20011KT 36/04 A2981 RMK A01 T03570043  RH  014%=      5-min Rain = 0
KSM2 010102Z 20012KT 36/04 A2981 RMK A01 T03560041  RH  014%=      5-min Rain = 0
KSM2 010103Z 21013KT 36/04 A2981 RMK A01 T03560039  RH  014%=      5-min Rain = 0
KSM2 010104Z 20010KT 36/04 A2981 RMK A01 T03560041  RH  014%=      5-min Rain = 0
KSM2 010105Z 20013G18KT 36/04 A2981 RMK A01 T03560041  RH  014%=      5-min Rain = 0
KSM2 010106Z 20015KT 36/04 A2981 RMK A01 T03560038  RH  014%=      5-min Rain = 0
KSM2 010107Z 20014KT 36/04 A2981 RMK A01 T03560039  RH  014%=      5-min Rain = 0
KSM2 010108Z 20014KT 36/04 A2981 RMK A01 T03550039  RH  014%=      5-min Rain = 0
KSM2 010109Z 21015KT 36/04 A2981 RMK A01 T03550039  RH  014%=      5-min Rain = 0
KSM2 010110Z 21013KT 36/04 A2982 RMK A01 T03550038  RH  014%=      5-min Rain = 0
KSM2 010111Z 21012KT 35/04 A2982 RMK A01 T03540040  RH  014%=      5-min Rain = 0
KSM2 010112Z 22014KT 35/04 A2981 RMK A01 T03530039  RH  014%=      5-min Rain = 0
KSM2 010113Z 22012KT 35/04 A2982 RMK A01 T03530039  RH  014%=      5-min Rain = 0
KSM2 010114Z 22011KT 35/04 A2982 RMK A01 T03530042  RH  014%=      5-min Rain = 0
KSM2 010115Z 21011KT 35/04 A2982 RMK A01 T03520044  RH  015%=      5-min Rain = 0
KSM2 010116Z 21011KT 35/04 A2982 RMK A01 T03510043  RH  015%=      5-min Rain = 0
KSM2 010117Z 22010KT 35/05 A2982 RMK A01 T03510045  RH  015%=      5-min Rain = 0
KSM2 010118Z 22011KT 35/05 A2982 RMK A01 T03500045  RH  015%=      5-min Rain = 0
KSM2 010119Z 22011KT 35/04 A2982 RMK A01 T03490042  RH  015%=      5-min Rain = 0
KSM2 010120Z 22013KT 35/04 A2982 RMK A01 T03490040  RH  014%=      5-min Rain = 0
KSM2 010121Z 21013KT 35/04 A2982 RMK A01 T03490037  RH  014%=      5-min Rain = 0
KSM2 010122Z 21013KT 35/04 A2982 RMK A01 T03500035  RH  014%=      5-min Rain = 0
KSM2 010123Z 21014KT 35/04 A2982 RMK A01 T03500036  RH  014%=      5-min Rain = 0
KSM2 010124Z 20012KT 35/04 A2982 RMK A01 T03500037  RH  014%=      5-min Rain = 0
KSM2 010125Z 20013G18KT 35/04 A2982 RMK A01 T03490035  RH  014%=      5-min Rain = 0
KSM2 010126Z 21013KT 35/03 A2982 RMK A01 T03500034  RH  014%=      5-min Rain = 0
KSM2 010127Z 21013KT 35/03 A2982 RMK A01 T03490034  RH  014%=      5-min Rain = 0
KSM2 010128Z 21014KT 35/03 A2982 RMK A01 T03490034  RH  014%=      5-min Rain = 0
KSM2 010129Z 21013KT 35/03 A2982 RMK A01 T03480034  RH  014%=      5-min Rain = 0
KSM2 010130Z 21011KT 35/04 A2982 RMK A01 T03470036  RH  014%=      5-min Rain = 0
KSM2 010131Z 21012KT 35/04 A2982 RMK A01 T03460036  RH  014%=      5-min Rain = 0
KSM2 010132Z 21011KT 35/04 A2982 RMK A01 T03450035  RH  014%=      5-min Rain = 0
KSM2 010133Z 21011KT 35/04 A2982 RMK A01 T03450036  RH  014%=      5-min Rain = 0
KSM2 010134Z 21011KT 34/04 A2982 RMK A01 T03440037  RH  015%=      5-min Rain = 0
KSM2 010135Z 21011KT 34/04 A2982 RMK A01 T03440036  RH  015%=      5-min Rain = 0
KSM2 010136Z 21010KT 34/04 A2982 RMK A01 T03440038  RH  015%=      5-min Rain = 0
KSM2 010137Z 21012KT 34/04 A2982 RMK A01 T03420037  RH  015%=      5-min Rain = 0
KSM2 010138Z 21012KT 34/04 A2982 RMK A01 T03420036  RH  015%=      5-min Rain = 0
KSM2 010139Z 21012KT 34/04 A2982 RMK A01 T03420037  RH  015%=      5-min Rain = 0
KSM2 010140Z 21013KT 34/04 A2982 RMK A01 T03410037  RH  015%=      5-min Rain = 0
KSM2 010141Z 21011KT 34/04 A2982 RMK A01 T03410037  RH  015%=      5-min Rain = 0
KSM2 010142Z 21010KT 34/04 A2982 RMK A01 T03400039  RH  015%=      5-min Rain = 0
KSM2 010143Z 21010KT 34/04 A2982 RMK A01 T03390038  RH  015%=      5-min Rain = 0
KSM2 010144Z 21010KT 34/04 A2982 RMK A01 T03390038  RH  015%=      5-min Rain = 0
KSM2 010145Z 21010KT 34/04 A2982 RMK A01 T03380038  RH  015%=      5-min Rain = 0
KSM2 010146Z 21010KT 34/04 A2982 RMK A01 T03380038  RH  015%=      5-min Rain = 0
KSM2 010147Z 21011KT 34/04 A2982 RMK A01 T03370040  RH  015%=      5-min Rain = 0
KSM2 010148Z 21011KT 34/04 A2982 RMK A01 T03360039  RH  015%=      5-min Rain = 0
KSM2 010149Z 21011KT 34/04 A2982 RMK A01 T03360040  RH  016%=      5-min Rain = 0
KSM2 010150Z 21011KT 34/04 A2982 RMK A01 T03360039  RH  016%=      5-min Rain = 0
KSM2 010151Z 21011KT 34/04 A2982 RMK A01 T03360039  RH  015%=      5-min Rain = 0
KSM2 010152Z 21012KT 34/04 A2982 RMK A01 T03360039  RH  016%=      5-min Rain = 0
KSM2 010153Z 21012KT 34/04 A2982 RMK A01 T03360039  RH  016%=      5-min Rain = 0
KSM2 010154Z 21012KT 34/04 A2982 RMK A01 T03350039  RH  016%=      5-min Rain = 0
KSM2 010155Z 21012KT 34/04 A2982 RMK A01 T03350039  RH  016%=      5-min Rain = 0
KSM2 010156Z 21012KT 33/04 A2982 RMK A01 T03340040  RH  016%=      5-min Rain = 0
KSM2 010157Z 21013KT 33/04 A2982 RMK A01 T03330039  RH  016%=      5-min Rain = 0
KSM2 010158Z 21012KT 33/04 A2983 RMK A01 T03330040  RH  016%=      5-min Rain = 0
KSM2 010159Z 21012KT 33/04 A2983 RMK A01 T03330040  RH  016%=      5-min Rain = 0
KSM2 010200Z 21012KT 33/04 A2983 RMK A01 T03320041  RH  016%=      5-min Rain = 0
KSM2 010201Z 21013KT 33/04 A2983 RMK A01 T03310041  RH  016%=      5-min Rain = 0
KSM2 010202Z 21011KT 33/04 A2983 RMK A01 T03300042  RH  016%=      5-min Rain = 0
KSM2 010203Z 21010KT 33/04 A2983 RMK A01 T03280044  RH  017%=      5-min Rain = 0
KSM2 010204Z 21010KT 33/04 A2983 RMK A01 T03260044  RH  017%=      5-min Rain = 0
KSM2 010205Z 21011KT 33/04 A2983 RMK A01 T03250043  RH  017%=      5-min Rain = 0
KSM2 010206Z 21009KT 33/04 A2983 RMK A01 T03250043  RH  017%=      5-min Rain = 0
KSM2 010207Z 21011KT 32/04 A2983 RMK A01 T03240043  RH  017%=      5-min Rain = 0
KSM2 010208Z 21011KT 32/04 A2983 RMK A01 T03240043  RH  017%=      5-min Rain = 0
KSM2 010209Z 21010KT 32/04 A2983 RMK A01 T03240044  RH  017%=      5-min Rain = 0
KSM2 010210Z 21011KT 32/04 A2983 RMK A01 T03230043  RH  017%=      5-min Rain = 0
KSM2 010211Z 21011KT 32/04 A2983 RMK A01 T03230043  RH  017%=      5-min Rain = 0
KSM2 010212Z 21011KT 32/04 A2983 RMK A01 T03240041  RH  017%=      5-min Rain = 0
KSM2 010213Z 21011KT 33/04 A2983 RMK A01 T03250042  RH  017%=      5-min Rain = 0
KSM2 010214Z 21010KT 32/04 A2983 RMK A01 T03240042  RH  017%=      5-min Rain = 0
KSM2 010215Z 21010KT 32/04 A2983 RMK A01 T03230041  RH  017%=      5-min Rain = 0
KSM2 010216Z 21010KT 32/04 A2983 RMK A01 T03230042  RH  017%=      5-min Rain = 0
KSM2 010217Z 21010KT 32/04 A2983 RMK A01 T03220042  RH  017%=      5-min Rain = 0
KSM2 010218Z 21010KT 32/04 A2983 RMK A01 T03220042  RH  017%=      5-min Rain = 0
KSM2 010219Z 21011KT 32/04 A2983 RMK A01 T03200042  RH  017%=      5-min Rain = 0
KSM2 010220Z 21010KT 32/04 A2983 RMK A01 T03200042  RH  017%=      5-min Rain = 0
KSM2 010221Z 21011KT 32/04 A2983 RMK A01 T03190042  RH  017%=      5-min Rain = 0
KSM2 010222Z 21010KT 32/04 A2983 RMK A01 T03190042  RH  017%=      5-min Rain = 0
KSM2 010223Z 21010KT 32/04 A2983 RMK A01 T03180042  RH  018%=      5-min Rain = 0
KSM2 010224Z 21010KT 32/04 A2983 RMK A01 T03180042  RH  018%=      5-min Rain = 0
KSM2 010225Z 21010KT 32/04 A2983 RMK A01 T03180043  RH  018%=      5-min Rain = 0
KSM2 010226Z 21009KT 32/04 A2983 RMK A01 T03170043  RH  018%=      5-min Rain = 0
KSM2 010227Z 21011KT 32/04 A2983 RMK A01 T03170042  RH  018%=      5-min Rain = 0
KSM2 010228Z 21009KT 32/04 A2983 RMK A01 T03170042  RH  018%=      5-min Rain = 0
KSM2 010229Z 21010KT 32/04 A2983 RMK A01 T03160043  RH  018%=      5-min Rain = 0
KSM2 010230Z 21009KT 32/04 A2983 RMK A01 T03150043  RH  018%=      5-min Rain = 0
KSM2 010231Z 21010KT 31/04 A2983 RMK A01 T03140043  RH  018%=      5-min Rain = 0
KSM2 010232Z 21010KT 31/04 A2983 RMK A01 T03140043  RH  018%=      5-min Rain = 0
KSM2 010233Z 22010KT 31/04 A2983 RMK A01 T03130042  RH  018%=      5-min Rain = 0
KSM2 010234Z 21010KT 31/04 A2983 RMK A01 T03130043  RH  018%=      5-min Rain = 0
KSM2 010235Z 22010KT 31/04 A2983 RMK A01 T03120041  RH  018%=      5-min Rain = 0
KSM2 010236Z 21010KT 31/04 A2983 RMK A01 T03120041  RH  018%=      5-min Rain = 0
KSM2 010237Z 21010KT 31/04 A2983 RMK A01 T03120042  RH  018%=      5-min Rain = 0
KSM2 010238Z 22010KT 31/04 A2983 RMK A01 T03110043  RH  018%=      5-min Rain = 0
KSM2 010239Z 22010KT 31/04 A2983 RMK A01 T03100042  RH  018%=      5-min Rain = 0
KSM2 010240Z 22010KT 31/04 A2983 RMK A01 T03100041  RH  018%=      5-min Rain = 0
KSM2 010241Z 22010KT 31/04 A2983 RMK A01 T03100040  RH  018%=      5-min Rain = 0
KSM2 010242Z 21009KT 31/04 A2984 RMK A01 T03100041  RH  018%=      5-min Rain = 0
KSM2 010243Z 22010KT 31/04 A2984 RMK A01 T03100042  RH  018%=      5-min Rain = 0
KSM2 010244Z 22009KT 31/04 A2984 RMK A01 T03080041  RH  018%=      5-min Rain = 0
KSM2 010245Z 22010KT 31/04 A2984 RMK A01 T03080040  RH  018%=      5-min Rain = 0
KSM2 010246Z 22010KT 31/04 A2984 RMK A01 T03080039  RH  018%=      5-min Rain = 0
KSM2 010247Z 21010KT 31/04 A2984 RMK A01 T03090040  RH  018%=      5-min Rain = 0
KSM2 010248Z 22010KT 31/04 A2984 RMK A01 T03080039  RH  018%=      5-min Rain = 0
KSM2 010249Z 22010KT 31/04 A2984 RMK A01 T03080039  RH  018%=      5-min Rain = 0
KSM2 010250Z 22010KT 31/04 A2984 RMK A01 T03090038  RH  018%=      5-min Rain = 0
KSM2 010251Z 22010KT 31/04 A2984 RMK A01 T03090038  RH  018%=      5-min Rain = 0
KSM2 010252Z 22011KT 31/04 A2984 RMK A01 T03090037  RH  018%=      5-min Rain = 0
KSM2 010253Z 22010KT 31/04 A2984 RMK A01 T03100038  RH  018%=      5-min Rain = 0
KSM2 010254Z 22010KT 31/04 A2984 RMK A01 T03090036  RH  018%=      5-min Rain = 0
KSM2 010255Z 22010KT 31/04 A2984 RMK A01 T03100037  RH  018%=      5-min Rain = 0
KSM2 010256Z 22011KT 31/04 A2984 RMK A01 T03110036  RH  018%=      5-min Rain = 0
KSM2 010257Z 22011KT 31/04 A2984 RMK A01 T03110036  RH  017%=      5-min Rain = 0
KSM2 010258Z 23010KT 31/04 A2984 RMK A01 T03110035  RH  017%=      5-min Rain = 0
KSM2 010259Z 22011KT 31/04 A2984 RMK A01 T03120035  RH  017%=      5-min Rain = 0
KSM2 010300Z 22010KT 31/04 A2984 RMK A01 T03120035  RH  017%=      5-min Rain = 0
KSM2 010301Z 22010KT 31/04 A2984 RMK A01 T03120035  RH  017%=      5-min Rain = 0
KSM2 010302Z 22010KT 31/04 A2984 RMK A01 T03120036  RH  017%=      5-min Rain = 0
KSM2 010303Z 23010KT 31/04 A2984 RMK A01 T03110035  RH  017%=      5-min Rain = 0
KSM2 010304Z 23010KT 31/04 A2984 RMK A01 T03110036  RH  018%=      5-min Rain = 0
KSM2 010305Z 23010KT 31/04 A2984 RMK A01 T03100036  RH  018%=      5-min Rain = 0
KSM2 010306Z 22010KT 31/04 A2984 RMK A01 T03090036  RH  018%=      5-min Rain = 0
KSM2 010307Z 22009KT 31/04 A2984 RMK A01 T03080036  RH  018%=      5-min Rain = 0
KSM2 010308Z 22010KT 31/04 A2984 RMK A01 T03070037  RH  018%=      5-min Rain = 0
KSM2 010309Z 22010KT 31/04 A2984 RMK A01 T03070036  RH  018%=      5-min Rain = 0
KSM2 010310Z 22009KT 31/04 A2984 RMK A01 T03060037  RH  018%=      5-min Rain = 0
KSM2 010311Z 23010KT 30/04 A2984 RMK A01 T03040036  RH  018%=      5-min Rain = 0
KSM2 010312Z 22009KT 30/04 A2985 RMK A01 T03030037  RH  018%=      5-min Rain = 0
KSM2 010313Z 22009KT 30/04 A2985 RMK A01 T03020037  RH  019%=      5-min Rain = 0
KSM2 010314Z 22009KT 30/04 A2985 RMK A01 T03020037  RH  019%=      5-min Rain = 0
KSM2 010315Z 22009KT 30/04 A2985 RMK A01 T03020038  RH  019%=      5-min Rain = 0
KSM2 010316Z 22009KT 30/04 A2985 RMK A01 T03010038  RH  019%=      5-min Rain = 0
KSM2 010317Z 22009KT 30/04 A2985 RMK A01 T03000037  RH  019%=      5-min Rain = 0
KSM2 010318Z 22009KT 30/04 A2985 RMK A01 T03000038  RH  019%=      5-min Rain = 0
KSM2 010319Z 23009KT 30/04 A2985 RMK A01 T02990038  RH  019%=      5-min Rain = 0
KSM2 010320Z 22009KT 30/04 A2985 RMK A01 T02980038  RH  019%=      5-min Rain = 0
KSM2 010321Z 23009KT 30/04 A2985 RMK A01 T02980038  RH  019%=      5-min Rain = 0
KSM2 010322Z 23009KT 30/04 A2985 RMK A01 T02980037  RH  019%=      5-min Rain = 0
KSM2 010323Z 23009KT 30/04 A2985 RMK A01 T02980037  RH  019%=      5-min Rain = 0
KSM2 010324Z 23010KT 30/04 A2985 RMK A01 T02980037  RH  019%=      5-min Rain = 0
KSM2 010325Z 23009KT 30/04 A2985 RMK A01 T02980037  RH  019%=      5-min Rain = 0
KSM2 010326Z 23009KT 30/04 A2985 RMK A01 T02980037  RH  019%=      5-min Rain = 0
KSM2 010327Z 23009KT 30/04 A2985 RMK A01 T02970037  RH  019%=      5-min Rain = 0
KSM2 010328Z 23010KT 30/04 A2985 RMK A01 T02960037  RH  019%=      5-min Rain = 0
KSM2 010329Z 23010KT 30/04 A2985 RMK A01 T02950037  RH  019%=      5-min Rain = 0
KSM2 010330Z 23009KT 30/04 A2985 RMK A01 T02950038  RH  019%=      5-min Rain = 0
KSM2 010331Z 23009KT 29/04 A2985 RMK A01 T02930038  RH  020%=      5-min Rain = 0
KSM2 010332Z 23009KT 29/04 A2985 RMK A01 T02920038  RH  020%=      5-min Rain = 0
KSM2 010333Z 23009KT 29/04 A2985 RMK A01 T02910038  RH  020%=      5-min Rain = 0
KSM2 010334Z 23009KT 29/04 A2985 RMK A01 T02910038  RH  020%=      5-min Rain = 0
KSM2 010335Z 23009KT 29/04 A2985 RMK A01 T02900038  RH  020%=      5-min Rain = 0
KSM2 010336Z 23009KT 29/04 A2985 RMK A01 T02900039  RH  020%=      5-min Rain = 0
KSM2 010337Z 23010KT 29/04 A2985 RMK A01 T02890039  RH  020%=      5-min Rain = 0
KSM2 010338Z 22009KT 29/04 A2985 RMK A01 T02890038  RH  020%=      5-min Rain = 0
KSM2 010339Z 23009KT 29/04 A2985 RMK A01 T02890038  RH  020%=      5-min Rain = 0
KSM2 010340Z 22009KT 29/04 A2985 RMK A01 T02890037  RH  020%=      5-min Rain = 0
KSM2 010341Z 23008KT 29/04 A2985 RMK A01 T02900038  RH  020%=      5-min Rain = 0
KSM2 010342Z 23008KT 29/04 A2985 RMK A01 T02890038  RH  020%=      5-min Rain = 0
KSM2 010343Z 22008KT 29/04 A2985 RMK A01 T02890038  RH  020%=      5-min Rain = 0
KSM2 010344Z 22008KT 29/04 A2985 RMK A01 T02890038  RH  020%=      5-min Rain = 0
KSM2 010345Z 22008KT 29/04 A2985 RMK A01 T02880039  RH  020%=      5-min Rain = 0
KSM2 010346Z 22008KT 29/04 A2985 RMK A01 T02870037  RH  020%=      5-min Rain = 0
KSM2 010347Z 21007KT 29/04 A2986 RMK A01 T02880037  RH  020%=      5-min Rain = 0
KSM2 010348Z 21007KT 29/04 A2986 RMK A01 T02880037  RH  020%=      5-min Rain = 0
KSM2 010349Z 21006KT 29/04 A2986 RMK A01 T02870038  RH  020%=      5-min Rain = 0
KSM2 010350Z 22007KT 29/04 A2986 RMK A01 T02850037  RH  020%=      5-min Rain = 0
KSM2 010351Z 22008KT 28/04 A2986 RMK A01 T02840038  RH  021%=      5-min Rain = 0
KSM2 010352Z 22008KT 28/04 A2986 RMK A01 T02830038  RH  021%=      5-min Rain = 0
KSM2 010353Z 22008KT 28/04 A2986 RMK A01 T02830037  RH  021%=      5-min Rain = 0
KSM2 010354Z 22008KT 28/04 A2986 RMK A01 T02830038  RH  021%=      5-min Rain = 0
KSM2 010355Z 22008KT 28/04 A2986 RMK A01 T02830039  RH  021%=      5-min Rain = 0
KSM2 010356Z 22008KT 28/04 A2986 RMK A01 T02830038  RH  021%=      5-min Rain = 0
KSM2 010357Z 22008KT 28/04 A2986 RMK A01 T02830039  RH  021%=      5-min Rain = 0
KSM2 010358Z 21007KT 28/04 A2986 RMK A01 T02820040  RH  021%=      5-min Rain = 0
KSM2 010359Z 22007KT 28/04 A2986 RMK A01 T02810040  RH  021%=      5-min Rain = 0
KSM2 010400Z 22007KT 28/04 A2986 RMK A01 T02800040  RH  022%=      5-min Rain = 0
KSM2 010401Z 22007KT 28/04 A2986 RMK A01 T02790040  RH  022%=      5-min Rain = 0
KSM2 010402Z 23008KT 28/04 A2986 RMK A01 T02790040  RH  022%=      5-min Rain = 0
KSM2 010403Z 23007KT 28/04 A2986 RMK A01 T02780039  RH  022%=      5-min Rain = 0
KSM2 010404Z 23008KT 28/04 A2986 RMK A01 T02790039  RH  022%=      5-min Rain = 0
KSM2 010405Z 23009KT 28/04 A2986 RMK A01 T02790039  RH  021%=      5-min Rain = 0
KSM2 010406Z 23009KT 28/04 A2986 RMK A01 T02790039  RH  021%=      5-min Rain = 0
KSM2 010407Z 23009KT 28/04 A2986 RMK A01 T02790040  RH  022%=      5-min Rain = 0
KSM2 010408Z 23009KT 28/04 A2986 RMK A01 T02780040  RH  022%=      5-min Rain = 0
KSM2 010409Z 23009KT 28/04 A2986 RMK A01 T02780039  RH  022%=      5-min Rain = 0
KSM2 010410Z 23009KT 28/04 A2986 RMK A01 T02780039  RH  022%=      5-min Rain = 0
KSM2 010411Z 23009KT 28/04 A2986 RMK A01 T02780040  RH  022%=      5-min Rain = 0
KSM2 010412Z 23009KT 28/04 A2986 RMK A01 T02780039  RH  022%=      5-min Rain = 0
KSM2 010413Z 23009KT 28/04 A2986 RMK A01 T02780039  RH  022%=      5-min Rain = 0
KSM2 010414Z 23009KT 28/04 A2986 RMK A01 T02780040  RH  022%=      5-min Rain = 0
KSM2 010415Z 23009KT 28/04 A2986 RMK A01 T02780041  RH  022%=      5-min Rain = 0
KSM2 010416Z 23009KT 28/04 A2986 RMK A01 T02770041  RH  022%=      5-min Rain = 0
KSM2 010417Z 23009KT 28/04 A2986 RMK A01 T02760040  RH  022%=      5-min Rain = 0
KSM2 010418Z 22009KT 28/04 A2986 RMK A01 T02760042  RH  022%=      5-min Rain = 0
KSM2 010419Z 23008KT 28/04 A2986 RMK A01 T02760041  RH  022%=      5-min Rain = 0
KSM2 010420Z 23008KT 28/04 A2986 RMK A01 T02760042  RH  022%=      5-min Rain = 0
KSM2 010421Z 23008KT 28/04 A2986 RMK A01 T02760042  RH  022%=      5-min Rain = 0
KSM2 010422Z 23009KT 28/04 A2986 RMK A01 T02750041  RH  022%=      5-min Rain = 0
KSM2 010423Z 23008KT 28/04 A2986 RMK A01 T02750041  RH  022%=      5-min Rain = 0
KSM2 010424Z 23008KT 27/04 A2986 RMK A01 T02740041  RH  022%=      5-min Rain = 0
KSM2 010425Z 23008KT 27/04 A2986 RMK A01 T02730041  RH  023%=      5-min Rain = 0
KSM2 010426Z 23008KT 27/04 A2985 RMK A01 T02720042  RH  023%=      5-min Rain = 0
KSM2 010427Z 23008KT 27/04 A2986 RMK A01 T02710042  RH  023%=      5-min Rain = 0
KSM2 010428Z 23008KT 27/04 A2985 RMK A01 T02710042  RH  023%=      5-min Rain = 0
KSM2 010429Z 23008KT 27/04 A2985 RMK A01 T02700043  RH  023%=      5-min Rain = 0
KSM2 010430Z 23008KT 27/04 A2985 RMK A01 T02700042  RH  023%=      5-min Rain = 0
KSM2 010431Z 23008KT 27/04 A2985 RMK A01 T02700042  RH  023%=      5-min Rain = 0
KSM2 010432Z 23008KT 27/04 A2985 RMK A01 T02700042  RH  023%=      5-min Rain = 0
KSM2 010433Z 23009KT 27/04 A2985 RMK A01 T02710041  RH  023%=      5-min Rain = 0
KSM2 010434Z 23008KT 27/04 A2985 RMK A01 T02710041  RH  023%=      5-min Rain = 0
KSM2 010435Z 23009KT 27/04 A2985 RMK A01 T02720041  RH  023%=      5-min Rain = 0
KSM2 010436Z 23008KT 27/04 A2985 RMK A01 T02710042  RH  023%=      5-min Rain = 0
KSM2 010437Z 23008KT 27/04 A2985 RMK A01 T02710041  RH  023%=      5-min Rain = 0
KSM2 010438Z 23008KT 27/04 A2985 RMK A01 T02710041  RH  023%=      5-min Rain = 0
KSM2 010439Z 23009KT 27/04 A2985 RMK A01 T02710041  RH  023%=      5-min Rain = 0
KSM2 010440Z 23009KT 27/04 A2985 RMK A01 T02710042  RH  023%=      5-min Rain = 0
KSM2 010441Z 23009KT 27/04 A2985 RMK A01 T02710041  RH  023%=      5-min Rain = 0
KSM2 010442Z 23009KT 27/04 A2985 RMK A01 T02710041  RH  023%=      5-min Rain = 0
KSM2 010443Z 23009KT 27/04 A2985 RMK A01 T02710040  RH  023%=      5-min Rain = 0
KSM2 010444Z 23009KT 27/04 A2985 RMK A01 T02720040  RH  023%=      5-min Rain = 0
KSM2 010445Z 23008KT 27/04 A2985 RMK A01 T02720040  RH  022%=      5-min Rain = 0
KSM2 010446Z 23009KT 27/04 A2985 RMK A01 T02720040  RH  022%=      5-min Rain = 0
KSM2 010447Z 24009KT 27/04 A2985 RMK A01 T02720039  RH  022%=      5-min Rain = 0
KSM2 010448Z 24009KT 27/04 A2986 RMK A01 T02720040  RH  023%=      5-min Rain = 0
KSM2 010449Z 24009KT 27/04 A2986 RMK A01 T02710039  RH  023%=      5-min Rain = 0
KSM2 010450Z 24009KT 27/04 A2986 RMK A01 T02710039  RH  022%=      5-min Rain = 0
KSM2 010451Z 24009KT 27/04 A2986 RMK A01 T02710039  RH  023%=      5-min Rain = 0
KSM2 010452Z 24008KT 27/04 A2986 RMK A01 T02710039  RH  023%=      5-min Rain = 0
KSM2 010453Z 24008KT 27/04 A2986 RMK A01 T02700039  RH  023%=      5-min Rain = 0
KSM2 010454Z 24008KT 27/04 A2986 RMK A01 T02700040  RH  023%=      5-min Rain = 0
KSM2 010455Z 23007KT 27/04 A2986 RMK A01 T02680041  RH  023%=      5-min Rain = 0
KSM2 010456Z 24008KT 27/04 A2986 RMK A01 T02670040  RH  023%=      5-min Rain = 0
KSM2 010457Z 24008KT 27/04 A2986 RMK A01 T02660040  RH  023%=      5-min Rain = 0
KSM2 010458Z 24008KT 27/04 A2986 RMK A01 T02660040  RH  023%=      5-min Rain = 0
KSM2 010459Z 23007KT 27/04 A2986 RMK A01 T02650040  RH  023%=      5-min Rain = 0

Page generated in 0.0706 seconds.